Observation data for Smyer on 08/14/2019      Previous  Date  Next       Current Mesonet Observations  Soil Data  Daily Summary Page  Observations in Plain Language
KSM2 140500Z 06005KT 25/17 A3015 RMK A01 T02520174  RH  062%=      5-min Rain = 0
KSM2 140501Z 05005KT 25/17 A3015 RMK A01 T02510174  RH  062%=      5-min Rain = 0
KSM2 140502Z 06005KT 25/17 A3015 RMK A01 T02510174  RH  062%=      5-min Rain = 0
KSM2 140503Z 06006KT 25/17 A3015 RMK A01 T02500174  RH  063%=      5-min Rain = 0
KSM2 140504Z 06006KT 25/17 A3015 RMK A01 T02500174  RH  063%=      5-min Rain = 0
KSM2 140505Z 06005KT 25/17 A3015 RMK A01 T02500174  RH  063%=      5-min Rain = 0
KSM2 140506Z 07005KT 25/17 A3015 RMK A01 T02490174  RH  063%=      5-min Rain = 0
KSM2 140507Z 06004KT 25/17 A3015 RMK A01 T02490174  RH  063%=      5-min Rain = 0
KSM2 140508Z 06004KT 25/17 A3015 RMK A01 T02480174  RH  063%=      5-min Rain = 0
KSM2 140509Z 07004KT 25/17 A3014 RMK A01 T02470173  RH  064%=      5-min Rain = 0
KSM2 140510Z 06005KT 25/17 A3014 RMK A01 T02460173  RH  064%=      5-min Rain = 0
KSM2 140527Z 06005KT 24/18 A3014 RMK A01 T02430176  RH  066%=      5-min Rain = 0
KSM2 140528Z 06006KT 24/18 A3014 RMK A01 T02440176  RH  066%=      5-min Rain = 0
KSM2 140529Z 06006KT 24/18 A3014 RMK A01 T02440176  RH  066%=      5-min Rain = 0
KSM2 140530Z 07005KT 24/18 A3015 RMK A01 T02440176  RH  066%=      5-min Rain = 0
KSM2 140531Z 07005KT 25/18 A3015 RMK A01 T02450176  RH  066%=      5-min Rain = 0
KSM2 140532Z 07005KT 25/18 A3015 RMK A01 T02450176  RH  066%=      5-min Rain = 0
KSM2 140533Z 07005KT 25/18 A3015 RMK A01 T02450177  RH  066%=      5-min Rain = 0
KSM2 140534Z 07005KT 25/18 A3015 RMK A01 T02450177  RH  066%=      5-min Rain = 0
KSM2 140535Z 07006KT 24/18 A3015 RMK A01 T02440177  RH  066%=      5-min Rain = 0
KSM2 140536Z 08006KT 24/18 A3015 RMK A01 T02430176  RH  066%=      5-min Rain = 0
KSM2 140537Z 08006KT 24/18 A3015 RMK A01 T02420176  RH  066%=      5-min Rain = 0
KSM2 140538Z 08006KT 24/18 A3014 RMK A01 T02410176  RH  067%=      5-min Rain = 0
KSM2 140539Z 08006KT 24/18 A3014 RMK A01 T02410176  RH  067%=      5-min Rain = 0
KSM2 140540Z 09006KT 24/18 A3014 RMK A01 T02400176  RH  067%=      5-min Rain = 0
KSM2 140541Z 09006KT 24/18 A3014 RMK A01 T02400176  RH  068%=      5-min Rain = 0
KSM2 140542Z 10006KT 24/18 A3014 RMK A01 T02390176  RH  068%=      5-min Rain = 0
KSM2 140543Z 10007KT 24/18 A3014 RMK A01 T02390176  RH  068%=      5-min Rain = 0
KSM2 140544Z 11006KT 24/18 A3013 RMK A01 T02380176  RH  068%=      5-min Rain = 0
KSM2 140545Z 10007KT 24/18 A3013 RMK A01 T02380176  RH  068%=      5-min Rain = 0
KSM2 140546Z 10006KT 24/18 A3013 RMK A01 T02390176  RH  068%=      5-min Rain = 0
KSM2 140547Z 11006KT 24/18 A3013 RMK A01 T02400177  RH  068%=      5-min Rain = 0
KSM2 140548Z 10006KT 24/18 A3013 RMK A01 T02410177  RH  067%=      5-min Rain = 0
KSM2 140549Z 09004KT 24/18 A3013 RMK A01 T02410176  RH  067%=      5-min Rain = 0
KSM2 140550Z 09005KT 24/18 A3013 RMK A01 T02410176  RH  067%=      5-min Rain = 0
KSM2 140551Z 09005KT 24/18 A3014 RMK A01 T02400176  RH  067%=      5-min Rain = 0
KSM2 140552Z 09004KT 24/18 A3014 RMK A01 T02390176  RH  068%=      5-min Rain = 0
KSM2 140553Z 09005KT 24/18 A3014 RMK A01 T02390176  RH  068%=      5-min Rain = 0
KSM2 140554Z 08005KT 24/18 A3014 RMK A01 T02390176  RH  068%=      5-min Rain = 0
KSM2 140555Z 08005KT 24/18 A3014 RMK A01 T02380176  RH  069%=      5-min Rain = 0
KSM2 140556Z 08006KT 24/18 A3014 RMK A01 T02380177  RH  069%=      5-min Rain = 0
KSM2 140557Z 08005KT 24/18 A3014 RMK A01 T02380177  RH  069%=      5-min Rain = 0
KSM2 140558Z 08005KT 24/18 A3014 RMK A01 T02380176  RH  068%=      5-min Rain = 0
KSM2 140559Z 08005KT 24/18 A3014 RMK A01 T02380176  RH  068%=      5-min Rain = 0
KSM2 140600Z 08005KT 24/18 A3014 RMK A01 T02370176  RH  068%=      5-min Rain = 0
KSM2 140601Z 08005KT 24/18 A3014 RMK A01 T02370176  RH  068%=      5-min Rain = 0
KSM2 140602Z 08005KT 24/18 A3014 RMK A01 T02360175  RH  069%=      5-min Rain = 0
KSM2 140603Z 07005KT 24/18 A3014 RMK A01 T02360176  RH  069%=      5-min Rain = 0
KSM2 140604Z 07004KT 24/18 A3014 RMK A01 T02350175  RH  069%=      5-min Rain = 0
KSM2 140605Z 07004KT 24/18 A3014 RMK A01 T02360175  RH  069%=      5-min Rain = 0
KSM2 140606Z 07005KT 24/18 A3014 RMK A01 T02350175  RH  069%=      5-min Rain = 0
KSM2 140607Z 08005KT 24/18 A3014 RMK A01 T02350175  RH  069%=      5-min Rain = 0
KSM2 140608Z 07005KT 24/18 A3014 RMK A01 T02350175  RH  069%=      5-min Rain = 0
KSM2 140609Z 08004KT 23/18 A3014 RMK A01 T02340175  RH  069%=      5-min Rain = 0
KSM2 140610Z 08004KT 23/17 A3014 RMK A01 T02330174  RH  069%=      5-min Rain = 0
KSM2 140611Z 08004KT 23/18 A3014 RMK A01 T02330175  RH  070%=      5-min Rain = 0
KSM2 140612Z 08004KT 23/18 A3014 RMK A01 T02320175  RH  070%=      5-min Rain = 0
KSM2 140613Z 07004KT 23/18 A3014 RMK A01 T02310175  RH  071%=      5-min Rain = 0
KSM2 140614Z 07004KT 23/18 A3014 RMK A01 T02310175  RH  071%=      5-min Rain = 0
KSM2 140615Z 07004KT 23/18 A3014 RMK A01 T02300175  RH  071%=      5-min Rain = 0
KSM2 140616Z 07004KT 23/18 A3014 RMK A01 T02300175  RH  071%=      5-min Rain = 0
KSM2 140617Z 06004KT 23/17 A3014 RMK A01 T02300174  RH  071%=      5-min Rain = 0
KSM2 140618Z 07004KT 23/17 A3014 RMK A01 T02300174  RH  071%=      5-min Rain = 0
KSM2 140619Z 07005KT 23/17 A3014 RMK A01 T02300174  RH  071%=      5-min Rain = 0
KSM2 140620Z 08005KT 23/17 A3014 RMK A01 T02290173  RH  071%=      5-min Rain = 0
KSM2 140621Z 08005KT 23/17 A3014 RMK A01 T02280173  RH  071%=      5-min Rain = 0
KSM2 140622Z 09005KT 23/17 A3014 RMK A01 T02270173  RH  071%=      5-min Rain = 0
KSM2 140623Z 08005KT 23/17 A3014 RMK A01 T02260172  RH  072%=      5-min Rain = 0
KSM2 140624Z 08005KT 23/17 A3014 RMK A01 T02250172  RH  072%=      5-min Rain = 0
KSM2 140625Z 08006KT 23/17 A3014 RMK A01 T02250173  RH  073%=      5-min Rain = 0
KSM2 140626Z 07005KT 23/17 A3014 RMK A01 T02250173  RH  073%=      5-min Rain = 0
KSM2 140627Z 06005KT 23/17 A3014 RMK A01 T02250172  RH  072%=      5-min Rain = 0
KSM2 140628Z 05005KT 23/17 A3014 RMK A01 T02260172  RH  072%=      5-min Rain = 0
KSM2 140629Z 06004KT 23/17 A3014 RMK A01 T02250171  RH  072%=      5-min Rain = 0
KSM2 140630Z 06005KT 23/17 A3015 RMK A01 T02260172  RH  072%=      5-min Rain = 0
KSM2 140631Z 06006KT 23/17 A3014 RMK A01 T02260173  RH  072%=      5-min Rain = 0
KSM2 140632Z 06005KT 23/17 A3014 RMK A01 T02260174  RH  072%=      5-min Rain = 0
KSM2 140633Z 06006KT 23/17 A3014 RMK A01 T02270174  RH  072%=      5-min Rain = 0
KSM2 140634Z 06006KT 23/17 A3014 RMK A01 T02280174  RH  072%=      5-min Rain = 0
KSM2 140635Z 05006KT 23/18 A3014 RMK A01 T02280175  RH  072%=      5-min Rain = 0
KSM2 140636Z 05006KT 23/18 A3014 RMK A01 T02290175  RH  071%=      5-min Rain = 0
KSM2 140637Z 05006KT 23/18 A3014 RMK A01 T02290175  RH  071%=      5-min Rain = 0
KSM2 140638Z 05005KT 23/17 A3014 RMK A01 T02290174  RH  071%=      5-min Rain = 0
KSM2 140639Z 05006KT 23/18 A3014 RMK A01 T02290175  RH  072%=      5-min Rain = 0
KSM2 140640Z 05005KT 23/18 A3015 RMK A01 T02280175  RH  072%=      5-min Rain = 0
KSM2 140641Z 05005KT 23/18 A3015 RMK A01 T02290175  RH  072%=      5-min Rain = 0
KSM2 140642Z 06005KT 23/18 A3015 RMK A01 T02290176  RH  072%=      5-min Rain = 0
KSM2 140643Z 07004KT 23/18 A3014 RMK A01 T02300176  RH  072%=      5-min Rain = 0
KSM2 140644Z 07004KT 23/18 A3014 RMK A01 T02290176  RH  072%=      5-min Rain = 0
KSM2 140645Z 07005KT 23/18 A3014 RMK A01 T02290176  RH  072%=      5-min Rain = 0
KSM2 140646Z 07005KT 23/18 A3014 RMK A01 T02290176  RH  072%=      5-min Rain = 0
KSM2 140647Z 07005KT 23/18 A3015 RMK A01 T02280175  RH  072%=      5-min Rain = 0
KSM2 140648Z 07005KT 23/18 A3015 RMK A01 T02280175  RH  072%=      5-min Rain = 0
KSM2 140649Z 06005KT 23/18 A3015 RMK A01 T02270175  RH  072%=      5-min Rain = 0
KSM2 140650Z 06006KT 23/18 A3015 RMK A01 T02270175  RH  072%=      5-min Rain = 0
KSM2 140651Z 06006KT 23/18 A3015 RMK A01 T02280175  RH  072%=      5-min Rain = 0
KSM2 140652Z 06006KT 23/18 A3015 RMK A01 T02290176  RH  072%=      5-min Rain = 0
KSM2 140653Z 06006KT 23/18 A3015 RMK A01 T02300176  RH  071%=      5-min Rain = 0
KSM2 140654Z 07005KT 23/18 A3015 RMK A01 T02300176  RH  071%=      5-min Rain = 0
KSM2 140655Z 07005KT 23/18 A3015 RMK A01 T02310176  RH  071%=      5-min Rain = 0
KSM2 140656Z 08006KT 23/18 A3015 RMK A01 T02310176  RH  072%=      5-min Rain = 0
KSM2 140657Z 08006KT 23/18 A3015 RMK A01 T02300176  RH  072%=      5-min Rain = 0
KSM2 140658Z 07006KT 23/18 A3015 RMK A01 T02290176  RH  072%=      5-min Rain = 0
KSM2 140659Z 07005KT 23/18 A3015 RMK A01 T02290176  RH  072%=      5-min Rain = 0
KSM2 140700Z 07004KT 23/18 A3015 RMK A01 T02290177  RH  072%=      5-min Rain = 0
KSM2 140701Z 07004KT 23/18 A3015 RMK A01 T02280176  RH  073%=      5-min Rain = 0
KSM2 140702Z 07005KT 23/18 A3015 RMK A01 T02280176  RH  073%=      5-min Rain = 0
KSM2 140703Z 07004KT 23/18 A3015 RMK A01 T02280177  RH  073%=      5-min Rain = 0
KSM2 140704Z 07004KT 23/18 A3015 RMK A01 T02280177  RH  073%=      5-min Rain = 0
KSM2 140705Z 07004KT 23/18 A3015 RMK A01 T02280177  RH  073%=      5-min Rain = 0
KSM2 140706Z 06004KT 23/18 A3015 RMK A01 T02280176  RH  073%=      5-min Rain = 0
KSM2 140707Z 06004KT 23/18 A3015 RMK A01 T02280176  RH  073%=      5-min Rain = 0
KSM2 140708Z 06005KT 23/18 A3015 RMK A01 T02280176  RH  072%=      5-min Rain = 0
KSM2 140709Z 05005KT 23/18 A3015 RMK A01 T02280176  RH  073%=      5-min Rain = 0
KSM2 140710Z 06006KT 23/18 A3015 RMK A01 T02280176  RH  073%=      5-min Rain = 0
KSM2 140711Z 06006KT 23/18 A3015 RMK A01 T02280177  RH  073%=      5-min Rain = 0
KSM2 140712Z 06006KT 23/18 A3015 RMK A01 T02280177  RH  073%=      5-min Rain = 0
KSM2 140713Z 07005KT 23/18 A3015 RMK A01 T02280177  RH  073%=      5-min Rain = 0
KSM2 140714Z 06006KT 23/18 A3015 RMK A01 T02280177  RH  073%=      5-min Rain = 0
KSM2 140715Z 06006KT 23/18 A3015 RMK A01 T02280177  RH  073%=      5-min Rain = 0
KSM2 140716Z 06006KT 23/18 A3015 RMK A01 T02290177  RH  073%=      5-min Rain = 0
KSM2 140717Z 07006KT 23/18 A3015 RMK A01 T02300177  RH  072%=      5-min Rain = 0
KSM2 140718Z 07006KT 23/18 A3015 RMK A01 T02300177  RH  072%=      5-min Rain = 0
KSM2 140719Z 07007KT 23/18 A3015 RMK A01 T02300178  RH  072%=      5-min Rain = 0
KSM2 140720Z 07007KT 23/18 A3015 RMK A01 T02300178  RH  072%=      5-min Rain = 0
KSM2 140721Z 07007KT 23/18 A3015 RMK A01 T02290178  RH  073%=      5-min Rain = 0
KSM2 140722Z 07006KT 23/18 A3015 RMK A01 T02300178  RH  073%=      5-min Rain = 0
KSM2 140723Z 07006KT 23/18 A3015 RMK A01 T02300177  RH  072%=      5-min Rain = 0
KSM2 140724Z 07006KT 23/18 A3015 RMK A01 T02300177  RH  072%=      5-min Rain = 0
KSM2 140725Z 07007KT 23/18 A3015 RMK A01 T02300177  RH  072%=      5-min Rain = 0
KSM2 140726Z 06007KT 23/18 A3015 RMK A01 T02300178  RH  072%=      5-min Rain = 0
KSM2 140727Z 06007KT 23/18 A3015 RMK A01 T02310178  RH  072%=      5-min Rain = 0
KSM2 140728Z 05008KT 23/18 A3015 RMK A01 T02320178  RH  072%=      5-min Rain = 0
KSM2 140729Z 05007KT 23/18 A3015 RMK A01 T02320178  RH  072%=      5-min Rain = 0
KSM2 140730Z 05007KT 23/18 A3016 RMK A01 T02320178  RH  072%=      5-min Rain = 0
KSM2 140731Z 04007KT 23/18 A3016 RMK A01 T02320178  RH  072%=      5-min Rain = 0
KSM2 140732Z 04007KT 23/18 A3016 RMK A01 T02320179  RH  072%=      5-min Rain = 0
KSM2 140733Z 04007KT 23/18 A3016 RMK A01 T02320178  RH  072%=      5-min Rain = 0
KSM2 140734Z 04008KT 23/18 A3016 RMK A01 T02310178  RH  072%=      5-min Rain = 0
KSM2 140735Z 05008KT 23/18 A3016 RMK A01 T02300178  RH  072%=      5-min Rain = 0
KSM2 140736Z 05007KT 23/18 A3016 RMK A01 T02300178  RH  073%=      5-min Rain = 0
KSM2 140737Z 05007KT 23/18 A3016 RMK A01 T02300178  RH  073%=      5-min Rain = 0
KSM2 140738Z 05007KT 23/18 A3016 RMK A01 T02290178  RH  073%=      5-min Rain = 0
KSM2 140739Z 05006KT 23/18 A3016 RMK A01 T02290179  RH  073%=      5-min Rain = 0
KSM2 140740Z 05007KT 23/18 A3016 RMK A01 T02290179  RH  073%=      5-min Rain = 0
KSM2 140741Z 06007KT 23/18 A3016 RMK A01 T02290179  RH  073%=      5-min Rain = 0
KSM2 140742Z 05006KT 23/18 A3016 RMK A01 T02290179  RH  073%=      5-min Rain = 0
KSM2 140743Z 05008KT 23/18 A3016 RMK A01 T02290179  RH  073%=      5-min Rain = 0
KSM2 140744Z 05008KT 23/18 A3016 RMK A01 T02300179  RH  073%=      5-min Rain = 0
KSM2 140745Z 05007KT 23/18 A3016 RMK A01 T02300179  RH  073%=      5-min Rain = 0
KSM2 140746Z 06008KT 23/18 A3016 RMK A01 T02300179  RH  073%=      5-min Rain = 0
KSM2 140747Z 06008KT 23/18 A3016 RMK A01 T02300179  RH  073%=      5-min Rain = 0
KSM2 140748Z 06007KT 23/18 A3016 RMK A01 T02300179  RH  073%=      5-min Rain = 0
KSM2 140749Z 06006KT 23/18 A3016 RMK A01 T02310179  RH  073%=      5-min Rain = 0
KSM2 140750Z 06007KT 23/18 A3016 RMK A01 T02300179  RH  073%=      5-min Rain = 0
KSM2 140751Z 06007KT 23/18 A3015 RMK A01 T02300179  RH  073%=      5-min Rain = 0
KSM2 140752Z 06006KT 23/18 A3016 RMK A01 T02290179  RH  073%=      5-min Rain = 0
KSM2 140753Z 06006KT 23/18 A3015 RMK A01 T02290179  RH  073%=      5-min Rain = 0
KSM2 140754Z 06006KT 23/18 A3015 RMK A01 T02290179  RH  073%=      5-min Rain = 0
KSM2 140755Z 06006KT 23/18 A3015 RMK A01 T02290179  RH  073%=      5-min Rain = 0
KSM2 140756Z 06007KT 23/18 A3015 RMK A01 T02290179  RH  073%=      5-min Rain = 0
KSM2 140757Z 06007KT 23/18 A3015 RMK A01 T02290179  RH  073%=      5-min Rain = 0
KSM2 140758Z 06007KT 23/18 A3015 RMK A01 T02280179  RH  074%=      5-min Rain = 0
KSM2 140759Z 06008KT 23/18 A3016 RMK A01 T02280179  RH  074%=      5-min Rain = 0
KSM2 140800Z 05008KT 23/18 A3016 RMK A01 T02280179  RH  074%=      5-min Rain = 0
KSM2 140801Z 05007KT 23/18 A3016 RMK A01 T02290179  RH  073%=      5-min Rain = 0
KSM2 140802Z 05008KT 23/18 A3016 RMK A01 T02290179  RH  073%=      5-min Rain = 0
KSM2 140803Z 05007KT 23/18 A3016 RMK A01 T02290180  RH  074%=      5-min Rain = 0
KSM2 140804Z 05006KT 23/18 A3016 RMK A01 T02290179  RH  073%=      5-min Rain = 0
KSM2 140805Z 05007KT 23/18 A3016 RMK A01 T02290179  RH  074%=      5-min Rain = 0
KSM2 140806Z 05007KT 23/18 A3016 RMK A01 T02290180  RH  074%=      5-min Rain = 0
KSM2 140807Z 05007KT 23/18 A3016 RMK A01 T02290180  RH  074%=      5-min Rain = 0
KSM2 140808Z 05007KT 23/18 A3016 RMK A01 T02290180  RH  074%=      5-min Rain = 0
KSM2 140809Z 05007KT 23/18 A3016 RMK A01 T02290180  RH  074%=      5-min Rain = 0
KSM2 140810Z 05006KT 23/18 A3016 RMK A01 T02290180  RH  074%=      5-min Rain = 0
KSM2 140811Z 05006KT 23/18 A3016 RMK A01 T02280180  RH  074%=      5-min Rain = 0
KSM2 140812Z 05006KT 23/18 A3016 RMK A01 T02280180  RH  074%=      5-min Rain = 0
KSM2 140813Z 06007KT 23/18 A3016 RMK A01 T02280180  RH  074%=      5-min Rain = 0
KSM2 140814Z 05006KT 23/18 A3016 RMK A01 T02280180  RH  074%=      5-min Rain = 0
KSM2 140815Z 05006KT 23/18 A3016 RMK A01 T02280180  RH  074%=      5-min Rain = 0
KSM2 140816Z 05007KT 23/18 A3016 RMK A01 T02280180  RH  074%=      5-min Rain = 0
KSM2 140817Z 05007KT 23/18 A3016 RMK A01 T02280180  RH  074%=      5-min Rain = 0
KSM2 140818Z 05006KT 23/18 A3016 RMK A01 T02280180  RH  074%=      5-min Rain = 0
KSM2 140819Z 05006G11KT 23/18 A3016 RMK A01 T02280180  RH  074%=      5-min Rain = 0
KSM2 140820Z 05007KT 23/18 A3016 RMK A01 T02280180  RH  074%=      5-min Rain = 0
KSM2 140821Z 05006KT 23/18 A3016 RMK A01 T02280180  RH  074%=      5-min Rain = 0
KSM2 140822Z 05008KT 23/18 A3016 RMK A01 T02280180  RH  074%=      5-min Rain = 0
KSM2 140823Z 05007KT 23/18 A3016 RMK A01 T02280180  RH  074%=      5-min Rain = 0
KSM2 140824Z 05007KT 23/18 A3016 RMK A01 T02290180  RH  074%=      5-min Rain = 0
KSM2 140825Z 05008KT 23/18 A3016 RMK A01 T02290180  RH  074%=      5-min Rain = 0
KSM2 140826Z 06007KT 23/18 A3016 RMK A01 T02290180  RH  074%=      5-min Rain = 0
KSM2 140827Z 06007KT 23/18 A3016 RMK A01 T02290180  RH  074%=      5-min Rain = 0
KSM2 140828Z 06008KT 23/18 A3016 RMK A01 T02290180  RH  074%=      5-min Rain = 0
KSM2 140829Z 06008KT 23/18 A3016 RMK A01 T02290181  RH  074%=      5-min Rain = 0
KSM2 140830Z 06006KT 23/18 A3016 RMK A01 T02290181  RH  074%=      5-min Rain = 0
KSM2 140831Z 06007KT 23/18 A3016 RMK A01 T02290181  RH  074%=      5-min Rain = 0
KSM2 140832Z 06005KT 23/18 A3016 RMK A01 T02280181  RH  075%=      5-min Rain = 0
KSM2 140833Z 07005KT 23/18 A3016 RMK A01 T02270180  RH  075%=      5-min Rain = 0
KSM2 140834Z 06005KT 23/18 A3016 RMK A01 T02270180  RH  075%=      5-min Rain = 0
KSM2 140835Z 06005KT 23/18 A3015 RMK A01 T02270180  RH  075%=      5-min Rain = 0
KSM2 140836Z 06005KT 23/18 A3015 RMK A01 T02260180  RH  075%=      5-min Rain = 0
KSM2 140837Z 06007KT 23/18 A3015 RMK A01 T02260180  RH  075%=      5-min Rain = 0
KSM2 140838Z 06006KT 23/18 A3015 RMK A01 T02260180  RH  075%=      5-min Rain = 0
KSM2 140839Z 06005KT 23/18 A3015 RMK A01 T02260180  RH  075%=      5-min Rain = 0
KSM2 140840Z 06006KT 23/18 A3015 RMK A01 T02260180  RH  075%=      5-min Rain = 0
KSM2 140841Z 06005KT 23/18 A3015 RMK A01 T02260181  RH  075%=      5-min Rain = 0
KSM2 140842Z 06005KT 23/18 A3015 RMK A01 T02260180  RH  075%=      5-min Rain = 0
KSM2 140843Z 07004KT 23/18 A3015 RMK A01 T02260180  RH  075%=      5-min Rain = 0
KSM2 140844Z 06004KT 23/18 A3015 RMK A01 T02250180  RH  075%=      5-min Rain = 0
KSM2 140845Z 06005KT 23/18 A3015 RMK A01 T02250180  RH  076%=      5-min Rain = 0
KSM2 140846Z 06005KT 22/18 A3015 RMK A01 T02240180  RH  076%=      5-min Rain = 0
KSM2 140847Z 07004KT 22/18 A3015 RMK A01 T02240180  RH  076%=      5-min Rain = 0
KSM2 140848Z 07004KT 22/18 A3015 RMK A01 T02240180  RH  076%=      5-min Rain = 0
KSM2 140849Z 07005KT 22/18 A3015 RMK A01 T02240180  RH  076%=      5-min Rain = 0
KSM2 140850Z 07005KT 22/18 A3015 RMK A01 T02240180  RH  076%=      5-min Rain = 0
KSM2 140851Z 07005KT 22/18 A3015 RMK A01 T02240180  RH  076%=      5-min Rain = 0
KSM2 140852Z 06005KT 22/18 A3015 RMK A01 T02240180  RH  076%=      5-min Rain = 0
KSM2 140853Z 07005KT 22/18 A3015 RMK A01 T02240180  RH  076%=      5-min Rain = 0
KSM2 140854Z 07005KT 22/18 A3015 RMK A01 T02240180  RH  076%=      5-min Rain = 0
KSM2 140855Z 06004KT 22/18 A3015 RMK A01 T02240180  RH  076%=      5-min Rain = 0
KSM2 140856Z 06005KT 22/18 A3015 RMK A01 T02240180  RH  076%=      5-min Rain = 0
KSM2 140857Z 06006KT 22/18 A3015 RMK A01 T02240180  RH  076%=      5-min Rain = 0
KSM2 140858Z 06005KT 22/18 A3015 RMK A01 T02240180  RH  076%=      5-min Rain = 0
KSM2 140859Z 07004KT 22/18 A3015 RMK A01 T02240180  RH  076%=      5-min Rain = 0
KSM2 140900Z 08005KT 22/18 A3015 RMK A01 T02230180  RH  077%=      5-min Rain = 0
KSM2 140901Z 08005KT 22/18 A3015 RMK A01 T02220180  RH  077%=      5-min Rain = 0
KSM2 140902Z 08005KT 22/18 A3015 RMK A01 T02210180  RH  077%=      5-min Rain = 0
KSM2 140903Z 08005KT 22/18 A3015 RMK A01 T02210180  RH  078%=      5-min Rain = 0
KSM2 140904Z 08005KT 22/18 A3015 RMK A01 T02200180  RH  078%=      5-min Rain = 0
KSM2 140905Z 08005KT 22/18 A3015 RMK A01 T02190180  RH  078%=      5-min Rain = 0
KSM2 140906Z 08005KT 22/18 A3015 RMK A01 T02190180  RH  078%=      5-min Rain = 0
KSM2 140907Z 08005KT 22/18 A3015 RMK A01 T02180180  RH  079%=      5-min Rain = 0
KSM2 140908Z 09005KT 22/18 A3015 RMK A01 T02180180  RH  079%=      5-min Rain = 0
KSM2 140909Z 08005KT 22/18 A3015 RMK A01 T02180180  RH  079%=      5-min Rain = 0
KSM2 140910Z 08005KT 22/18 A3015 RMK A01 T02180180  RH  079%=      5-min Rain = 0
KSM2 140911Z 08005KT 22/18 A3015 RMK A01 T02170179  RH  079%=      5-min Rain = 0
KSM2 140912Z 07005KT 22/18 A3015 RMK A01 T02170179  RH  079%=      5-min Rain = 0
KSM2 140913Z 07004KT 22/18 A3015 RMK A01 T02170179  RH  079%=      5-min Rain = 0
KSM2 140914Z 07004KT 22/18 A3015 RMK A01 T02170179  RH  079%=      5-min Rain = 0
KSM2 140915Z 06004KT 22/18 A3015 RMK A01 T02170179  RH  079%=      5-min Rain = 0
KSM2 140916Z 06004KT 22/18 A3015 RMK A01 T02170179  RH  079%=      5-min Rain = 0
KSM2 140917Z 06004KT 22/18 A3015 RMK A01 T02170178  RH  078%=      5-min Rain = 0
KSM2 140918Z 06004KT 22/18 A3015 RMK A01 T02170178  RH  078%=      5-min Rain = 0
KSM2 140919Z 05004KT 22/18 A3015 RMK A01 T02180179  RH  079%=      5-min Rain = 0
KSM2 140920Z 06004KT 22/18 A3015 RMK A01 T02180179  RH  079%=      5-min Rain = 0
KSM2 140921Z 05004KT 22/18 A3015 RMK A01 T02180179  RH  079%=      5-min Rain = 0
KSM2 140922Z 05004KT 22/18 A3015 RMK A01 T02180179  RH  079%=      5-min Rain = 0
KSM2 140923Z 05005KT 22/18 A3015 RMK A01 T02180179  RH  079%=      5-min Rain = 0
KSM2 140924Z 05004KT 22/18 A3015 RMK A01 T02180179  RH  079%=      5-min Rain = 0
KSM2 140925Z 05004KT 22/18 A3015 RMK A01 T02180179  RH  079%=      5-min Rain = 0
KSM2 140926Z 05004KT 22/18 A3015 RMK A01 T02170179  RH  079%=      5-min Rain = 0
KSM2 140927Z 05005KT 22/18 A3015 RMK A01 T02170179  RH  079%=      5-min Rain = 0
KSM2 140928Z 05005KT 22/18 A3015 RMK A01 T02170179  RH  079%=      5-min Rain = 0
KSM2 140929Z 05005KT 22/18 A3015 RMK A01 T02170180  RH  079%=      5-min Rain = 0
KSM2 140930Z 05005KT 22/18 A3015 RMK A01 T02170180  RH  079%=      5-min Rain = 0
KSM2 140931Z 05005KT 22/18 A3015 RMK A01 T02170179  RH  079%=      5-min Rain = 0
KSM2 140932Z 05005KT 22/18 A3015 RMK A01 T02170179  RH  079%=      5-min Rain = 0
KSM2 140933Z 05005KT 22/18 A3015 RMK A01 T02170179  RH  079%=      5-min Rain = 0
KSM2 140934Z 05005KT 22/18 A3015 RMK A01 T02170179  RH  079%=      5-min Rain = 0
KSM2 140935Z 05005KT 22/18 A3015 RMK A01 T02170180  RH  079%=      5-min Rain = 0
KSM2 140936Z 05005KT 22/18 A3015 RMK A01 T02170179  RH  079%=      5-min Rain = 0
KSM2 140937Z 04006KT 22/18 A3015 RMK A01 T02170179  RH  079%=      5-min Rain = 0
KSM2 140938Z 04006KT 22/18 A3015 RMK A01 T02170179  RH  079%=      5-min Rain = 0
KSM2 140939Z 05006KT 22/18 A3015 RMK A01 T02160179  RH  079%=      5-min Rain = 0
KSM2 140940Z 05007KT 22/18 A3015 RMK A01 T02160179  RH  079%=      5-min Rain = 0
KSM2 140941Z 05006KT 22/18 A3015 RMK A01 T02170180  RH  079%=      5-min Rain = 0
KSM2 140942Z 06005KT 22/18 A3015 RMK A01 T02180180  RH  079%=      5-min Rain = 0
KSM2 140943Z 05006KT 22/18 A3015 RMK A01 T02180180  RH  079%=      5-min Rain = 0
KSM2 140944Z 05006KT 22/18 A3015 RMK A01 T02180180  RH  079%=      5-min Rain = 0
KSM2 140945Z 05006KT 22/18 A3015 RMK A01 T02180180  RH  079%=      5-min Rain = 0
KSM2 140946Z 05006KT 22/18 A3015 RMK A01 T02180180  RH  079%=      5-min Rain = 0
KSM2 140947Z 05006KT 22/18 A3015 RMK A01 T02180180  RH  079%=      5-min Rain = 0
KSM2 140948Z 05006KT 22/18 A3016 RMK A01 T02180180  RH  079%=      5-min Rain = 0
KSM2 140949Z 05006KT 22/18 A3016 RMK A01 T02180180  RH  079%=      5-min Rain = 0
KSM2 140950Z 05006KT 22/18 A3016 RMK A01 T02180180  RH  079%=      5-min Rain = 0
KSM2 140951Z 05005KT 22/18 A3016 RMK A01 T02180180  RH  079%=      5-min Rain = 0
KSM2 140952Z 05005KT 22/18 A3016 RMK A01 T02180180  RH  079%=      5-min Rain = 0
KSM2 140953Z 05004KT 22/18 A3016 RMK A01 T02180180  RH  079%=      5-min Rain = 0
KSM2 140954Z 04005KT 22/18 A3016 RMK A01 T02180180  RH  079%=      5-min Rain = 0
KSM2 140955Z 04005KT 22/18 A3016 RMK A01 T02180180  RH  079%=      5-min Rain = 0
KSM2 140956Z 04005KT 22/18 A3016 RMK A01 T02180180  RH  079%=      5-min Rain = 0
KSM2 140957Z 04006KT 22/18 A3016 RMK A01 T02170179  RH  079%=      5-min Rain = 0
KSM2 140958Z 04006KT 22/18 A3016 RMK A01 T02160179  RH  079%=      5-min Rain = 0
KSM2 140959Z 04006KT 22/18 A3016 RMK A01 T02160179  RH  080%=      5-min Rain = 0
KSM2 141000Z 03006KT 22/18 A3016 RMK A01 T02160180  RH  080%=      5-min Rain = 0
KSM2 141001Z 03006KT 22/18 A3016 RMK A01 T02150180  RH  080%=      5-min Rain = 0
KSM2 141002Z 03007KT 22/18 A3016 RMK A01 T02160180  RH  080%=      5-min Rain = 0
KSM2 141003Z 03007KT 22/18 A3016 RMK A01 T02160180  RH  080%=      5-min Rain = 0
KSM2 141004Z 03006KT 22/18 A3016 RMK A01 T02160181  RH  080%=      5-min Rain = 0
KSM2 141005Z 03007KT 22/18 A3016 RMK A01 T02170181  RH  080%=      5-min Rain = 0
KSM2 141006Z 03007KT 22/18 A3016 RMK A01 T02180181  RH  080%=      5-min Rain = 0
KSM2 141007Z 03007KT 22/18 A3016 RMK A01 T02180181  RH  079%=      5-min Rain = 0
KSM2 141008Z 03007KT 22/18 A3016 RMK A01 T02190181  RH  079%=      5-min Rain = 0
KSM2 141009Z 03007KT 22/18 A3016 RMK A01 T02190181  RH  079%=      5-min Rain = 0
KSM2 141010Z 03008KT 22/18 A3016 RMK A01 T02200182  RH  079%=      5-min Rain = 0
KSM2 141011Z 03008KT 22/18 A3016 RMK A01 T02210182  RH  079%=      5-min Rain = 0
KSM2 141012Z 03008KT 22/18 A3016 RMK A01 T02210182  RH  078%=      5-min Rain = 0
KSM2 141013Z 03007KT 22/18 A3016 RMK A01 T02210182  RH  078%=      5-min Rain = 0
KSM2 141014Z 03008KT 22/18 A3016 RMK A01 T02210182  RH  078%=      5-min Rain = 0
KSM2 141015Z 03007KT 22/18 A3016 RMK A01 T02220182  RH  078%=      5-min Rain = 0
KSM2 141016Z 03007KT 22/18 A3016 RMK A01 T02220182  RH  078%=      5-min Rain = 0
KSM2 141017Z 03007KT 22/18 A3016 RMK A01 T02220182  RH  078%=      5-min Rain = 0
KSM2 141018Z 03007KT 22/18 A3016 RMK A01 T02220182  RH  078%=      5-min Rain = 0
KSM2 141019Z 03007KT 22/18 A3016 RMK A01 T02220182  RH  078%=      5-min Rain = 0
KSM2 141020Z 03007KT 22/18 A3016 RMK A01 T02220182  RH  078%=      5-min Rain = 0
KSM2 141021Z 03007KT 22/18 A3016 RMK A01 T02220182  RH  078%=      5-min Rain = 0
KSM2 141022Z 04007KT 22/18 A3016 RMK A01 T02220182  RH  078%=      5-min Rain = 0
KSM2 141023Z 04007KT 22/18 A3016 RMK A01 T02220182  RH  078%=      5-min Rain = 0
KSM2 141024Z 04006KT 22/18 A3016 RMK A01 T02220182  RH  078%=      5-min Rain = 0
KSM2 141025Z 04006KT 22/18 A3016 RMK A01 T02220182  RH  078%=      5-min Rain = 0
KSM2 141026Z 04006KT 22/18 A3016 RMK A01 T02220182  RH  078%=      5-min Rain = 0
KSM2 141027Z 04006KT 22/18 A3016 RMK A01 T02220182  RH  078%=      5-min Rain = 0
KSM2 141028Z 04006KT 22/18 A3016 RMK A01 T02230182  RH  078%=      5-min Rain = 0
KSM2 141029Z 04005KT 22/18 A3016 RMK A01 T02230182  RH  078%=      5-min Rain = 0
KSM2 141030Z 04006KT 22/18 A3017 RMK A01 T02230183  RH  078%=      5-min Rain = 0
KSM2 141031Z 04006KT 22/18 A3017 RMK A01 T02230182  RH  078%=      5-min Rain = 0
KSM2 141032Z 05006KT 22/18 A3017 RMK A01 T02230182  RH  078%=      5-min Rain = 0
KSM2 141033Z 05005KT 22/18 A3017 RMK A01 T02230183  RH  078%=      5-min Rain = 0
KSM2 141034Z 05006KT 22/18 A3017 RMK A01 T02230183  RH  078%=      5-min Rain = 0
KSM2 141035Z 05007KT 22/18 A3017 RMK A01 T02230183  RH  078%=      5-min Rain = 0
KSM2 141036Z 04006KT 22/18 A3017 RMK A01 T02230183  RH  078%=      5-min Rain = 0
KSM2 141037Z 04008KT 22/18 A3017 RMK A01 T02240183  RH  078%=      5-min Rain = 0
KSM2 141038Z 04008KT 22/18 A3017 RMK A01 T02240183  RH  078%=      5-min Rain = 0
KSM2 141039Z 04009KT 22/18 A3017 RMK A01 T02240183  RH  078%=      5-min Rain = 0
KSM2 141040Z 04010KT 22/18 A3017 RMK A01 T02240183  RH  078%=      5-min Rain = 0
KSM2 141041Z 03011KT 22/18 A3017 RMK A01 T02240183  RH  077%=      5-min Rain = 0
KSM2 141042Z 03012KT 22/18 A3017 RMK A01 T02240182  RH  077%=      5-min Rain = 0
KSM2 141043Z 04012KT 22/18 A3017 RMK A01 T02240183  RH  077%=      5-min Rain = 0
KSM2 141044Z 04010KT 22/18 A3018 RMK A01 T02240183  RH  077%=      5-min Rain = 0
KSM2 141045Z 04012KT 22/18 A3018 RMK A01 T02240183  RH  077%=      5-min Rain = 0
KSM2 141046Z 04011KT 22/18 A3017 RMK A01 T02240183  RH  077%=      5-min Rain = 0
KSM2 141047Z 03010KT 22/18 A3017 RMK A01 T02240183  RH  077%=      5-min Rain = 0
KSM2 141048Z 04011KT 22/18 A3017 RMK A01 T02240183  RH  077%=      5-min Rain = 0
KSM2 141049Z 04013KT 22/18 A3017 RMK A01 T02240182  RH  077%=      5-min Rain = 0
KSM2 141050Z 04013KT 22/18 A3017 RMK A01 T02240182  RH  077%=      5-min Rain = 0
KSM2 141051Z 04011KT 23/18 A3018 RMK A01 T02250182  RH  077%=      5-min Rain = 0
KSM2 141052Z 04011KT 23/18 A3018 RMK A01 T02250182  RH  076%=      5-min Rain = 0
KSM2 141053Z 04012G17KT 23/18 A3018 RMK A01 T02250181  RH  076%=      5-min Rain = 0
KSM2 141054Z 04012KT 23/18 A3018 RMK A01 T02260181  RH  076%=      5-min Rain = 0
KSM2 141055Z 04011KT 23/18 A3018 RMK A01 T02260181  RH  076%=      5-min Rain = 0
KSM2 141056Z 04012KT 23/18 A3018 RMK A01 T02260181  RH  076%=      5-min Rain = 0
KSM2 141057Z 04013G19KT 23/18 A3018 RMK A01 T02260181  RH  076%=      5-min Rain = 0
KSM2 141058Z 04013KT 23/18 A3018 RMK A01 T02260181  RH  076%=      5-min Rain = 0
KSM2 141059Z 05011KT 23/18 A3018 RMK A01 T02260181  RH  076%=      5-min Rain = 0
KSM2 141100Z 04010KT 23/18 A3018 RMK A01 T02260181  RH  076%=      5-min Rain = 0
KSM2 141101Z 04012KT 23/18 A3018 RMK A01 T02260182  RH  076%=      5-min Rain = 0
KSM2 141102Z 04013KT 23/18 A3018 RMK A01 T02260182  RH  076%=      5-min Rain = 0
KSM2 141103Z 04011KT 23/18 A3018 RMK A01 T02260182  RH  076%=      5-min Rain = 0
KSM2 141104Z 04011G16KT 23/18 A3018 RMK A01 T02260182  RH  076%=      5-min Rain = 0
KSM2 141105Z 04010KT 23/18 A3018 RMK A01 T02260182  RH  076%=      5-min Rain = 0
KSM2 141106Z 04011KT 23/18 A3018 RMK A01 T02250182  RH  076%=      5-min Rain = 0
KSM2 141107Z 05012KT 23/18 A3018 RMK A01 T02250182  RH  076%=      5-min Rain = 0
KSM2 141108Z 04012KT 23/18 A3018 RMK A01 T02250182  RH  076%=      5-min Rain = 0
KSM2 141109Z 05014KT 23/18 A3018 RMK A01 T02250181  RH  076%=      5-min Rain = 0
KSM2 141110Z 04011KT 23/18 A3018 RMK A01 T02250182  RH  076%=      5-min Rain = 0
KSM2 141111Z 04013G18KT 23/18 A3018 RMK A01 T02250181  RH  076%=      5-min Rain = 0
KSM2 141112Z 05015KT 23/18 A3018 RMK A01 T02250181  RH  077%=      5-min Rain = 0
KSM2 141113Z 04016KT 22/18 A3018 RMK A01 T02240182  RH  077%=      5-min Rain = 0
KSM2 141114Z 04014KT 22/18 A3018 RMK A01 T02240181  RH  077%=      5-min Rain = 0
KSM2 141115Z 04013KT 22/18 A3018 RMK A01 T02240181  RH  077%=      5-min Rain = 0
KSM2 141116Z 04015KT 22/18 A3018 RMK A01 T02240181  RH  077%=      5-min Rain = 0
KSM2 141117Z 04012KT 22/18 A3019 RMK A01 T02230181  RH  077%=      5-min Rain = 0
KSM2 141118Z 04013KT 22/18 A3019 RMK A01 T02230181  RH  077%=      5-min Rain = 0
KSM2 141119Z 04014KT 22/18 A3019 RMK A01 T02230181  RH  077%=      5-min Rain = 0
KSM2 141120Z 04015KT 22/18 A3019 RMK A01 T02230181  RH  077%=      5-min Rain = 0
KSM2 141121Z 05016KT 22/18 A3019 RMK A01 T02220180  RH  077%=      5-min Rain = 0
KSM2 141122Z 05015KT 22/18 A3019 RMK A01 T02220180  RH  077%=      5-min Rain = 0
KSM2 141123Z 04012KT 22/18 A3019 RMK A01 T02220180  RH  077%=      5-min Rain = 0
KSM2 141124Z 04011KT 22/18 A3019 RMK A01 T02220180  RH  077%=      5-min Rain = 0
KSM2 141125Z 04012KT 22/18 A3019 RMK A01 T02210180  RH  077%=      5-min Rain = 0
KSM2 141126Z 04013KT 22/18 A3019 RMK A01 T02210180  RH  078%=      5-min Rain = 0
KSM2 141127Z 04010KT 22/18 A3019 RMK A01 T02210180  RH  078%=      5-min Rain = 0
KSM2 141128Z 04008KT 22/18 A3019 RMK A01 T02200180  RH  078%=      5-min Rain = 0
KSM2 141129Z 04011KT 22/18 A3019 RMK A01 T02200180  RH  078%=      5-min Rain = 0
KSM2 141130Z 04014KT 22/18 A3019 RMK A01 T02200180  RH  078%=      5-min Rain = 0
KSM2 141131Z 04013KT 22/18 A3019 RMK A01 T02190179  RH  078%=      5-min Rain = 0
KSM2 141132Z 05011KT 22/18 A3019 RMK A01 T02200179  RH  078%=      5-min Rain = 0
KSM2 141133Z 05011KT 22/18 A3019 RMK A01 T02190179  RH  078%=      5-min Rain = 0
KSM2 141134Z 05013KT 22/18 A3019 RMK A01 T02190178  RH  077%=      5-min Rain = 0
KSM2 141135Z 04014KT 22/18 A3019 RMK A01 T02190177  RH  077%=      5-min Rain = 0
KSM2 141136Z 05012KT 22/18 A3019 RMK A01 T02180177  RH  077%=      5-min Rain = 0
KSM2 141137Z 05014G19KT 22/18 A3019 RMK A01 T02190177  RH  077%=      5-min Rain = 0
KSM2 141138Z 04017KT 22/18 A3019 RMK A01 T02180176  RH  077%=      5-min Rain = 0
KSM2 141139Z 05016KT 22/18 A3019 RMK A01 T02180176  RH  077%=      5-min Rain = 0
KSM2 141140Z 05013G19KT 22/18 A302 RMK A01 T02180175  RH  077%=      5-min Rain = 0
KSM2 141141Z 05014G19KT 22/17 A3019 RMK A01 T02170173  RH  076%=      5-min Rain = 0
KSM2 141142Z 05015KT 22/17 A3019 RMK A01 T02170172  RH  076%=      5-min Rain = 0
KSM2 141143Z 05016KT 22/17 A3019 RMK A01 T02170171  RH  075%=      5-min Rain = 0
KSM2 141144Z 04015KT 22/17 A3019 RMK A01 T02160171  RH  075%=      5-min Rain = 0
KSM2 141145Z 04015KT 22/17 A302 RMK A01 T02160170  RH  075%=      5-min Rain = 0
KSM2 141146Z 04016G21KT 22/17 A302 RMK A01 T02160169  RH  075%=      5-min Rain = 0
KSM2 141147Z 04015KT 22/17 A302 RMK A01 T02150169  RH  075%=      5-min Rain = 0
KSM2 141148Z 04016KT 22/17 A302 RMK A01 T02150168  RH  075%=      5-min Rain = 0
KSM2 141149Z 04013G18KT 22/17 A302 RMK A01 T02150168  RH  075%=      5-min Rain = 0
KSM2 141150Z 04014KT 22/17 A302 RMK A01 T02150169  RH  075%=      5-min Rain = 0
KSM2 141151Z 04015KT 22/17 A302 RMK A01 T02150168  RH  075%=      5-min Rain = 0
KSM2 141152Z 05015KT 21/17 A302 RMK A01 T02140168  RH  075%=      5-min Rain = 0
KSM2 141153Z 04013KT 21/17 A302 RMK A01 T02140168  RH  075%=      5-min Rain = 0
KSM2 141154Z 04013KT 22/17 A302 RMK A01 T02150168  RH  075%=      5-min Rain = 0
KSM2 141155Z 04013KT 22/17 A302 RMK A01 T02150168  RH  075%=      5-min Rain = 0
KSM2 141156Z 05013KT 22/17 A3021 RMK A01 T02150168  RH  075%=      5-min Rain = 0
KSM2 141157Z 04017KT 21/17 A3021 RMK A01 T02140167  RH  075%=      5-min Rain = 0
KSM2 141158Z 04015KT 21/17 A3021 RMK A01 T02140167  RH  075%=      5-min Rain = 0
KSM2 141159Z 04013KT 21/17 A3021 RMK A01 T02140167  RH  075%=      5-min Rain = 0
KSM2 141200Z 04013G20KT 21/17 A3021 RMK A01 T02140167  RH  074%=      5-min Rain = 0
KSM2 141201Z 04016KT 21/17 A3021 RMK A01 T02140166  RH  074%=      5-min Rain = 0
KSM2 141202Z 04015KT 21/16 A3021 RMK A01 T02130164  RH  073%=      5-min Rain = 0
KSM2 141203Z 04017KT 21/16 A3021 RMK A01 T02130163  RH  073%=      5-min Rain = 0
KSM2 141204Z 04019KT 21/16 A3021 RMK A01 T02130162  RH  072%=      5-min Rain = 0
KSM2 141205Z 04016KT 21/16 A3021 RMK A01 T02130161  RH  072%=      5-min Rain = 0
KSM2 141206Z 05013KT 21/16 A3021 RMK A01 T02130161  RH  072%=      5-min Rain = 0
KSM2 141207Z 04013KT 21/16 A3021 RMK A01 T02130161  RH  072%=      5-min Rain = 0
KSM2 141208Z 04014KT 21/16 A3021 RMK A01 T02130160  RH  072%=      5-min Rain = 0
KSM2 141209Z 04015KT 21/16 A3021 RMK A01 T02120160  RH  072%=      5-min Rain = 0
KSM2 141210Z 04015KT 21/16 A3021 RMK A01 T02120160  RH  072%=      5-min Rain = 0
KSM2 141211Z 04012KT 21/16 A3021 RMK A01 T02120160  RH  072%=      5-min Rain = 0
KSM2 141212Z 04011KT 21/16 A3021 RMK A01 T02120160  RH  072%=      5-min Rain = 0
KSM2 141213Z 04011KT 21/16 A3021 RMK A01 T02120160  RH  072%=      5-min Rain = 0
KSM2 141214Z 04014KT 21/16 A3021 RMK A01 T02110160  RH  073%=      5-min Rain = 0
KSM2 141215Z 04013KT 21/16 A3021 RMK A01 T02110160  RH  073%=      5-min Rain = 0
KSM2 141216Z 04011KT 21/16 A3021 RMK A01 T02110160  RH  073%=      5-min Rain = 0
KSM2 141217Z 04012KT 21/16 A3021 RMK A01 T02110161  RH  073%=      5-min Rain = 0
KSM2 141218Z 04010KT 21/16 A3022 RMK A01 T02110161  RH  073%=      5-min Rain = 0
KSM2 141219Z 04010KT 21/16 A3022 RMK A01 T02100161  RH  073%=      5-min Rain = 0
KSM2 141220Z 03008KT 21/16 A3022 RMK A01 T02100162  RH  074%=      5-min Rain = 0
KSM2 141221Z 03010KT 21/16 A3022 RMK A01 T02100163  RH  075%=      5-min Rain = 0
KSM2 141222Z 03012KT 21/16 A3022 RMK A01 T02090163  RH  075%=      5-min Rain = 0
KSM2 141223Z 03011KT 21/16 A3022 RMK A01 T02090163  RH  075%=      5-min Rain = 0
KSM2 141224Z 03013KT 21/16 A3022 RMK A01 T02080162  RH  075%=      5-min Rain = 0
KSM2 141225Z 03011KT 21/16 A3022 RMK A01 T02080161  RH  075%=      5-min Rain = 0
KSM2 141226Z 03011KT 21/16 A3022 RMK A01 T02080161  RH  074%=      5-min Rain = 0
KSM2 141227Z 03010KT 21/16 A3022 RMK A01 T02080160  RH  074%=      5-min Rain = 0
KSM2 141228Z 03013KT 21/16 A3022 RMK A01 T02080159  RH  074%=      5-min Rain = 0
KSM2 141229Z 03013KT 21/16 A3023 RMK A01 T02070158  RH  074%=      5-min Rain = 0
KSM2 141230Z 03014KT 21/16 A3023 RMK A01 T02070157  RH  073%=      5-min Rain = 0
KSM2 141231Z 02013KT 21/16 A3023 RMK A01 T02060156  RH  073%=      5-min Rain = 0
KSM2 141232Z 02013KT 21/16 A3023 RMK A01 T02060155  RH  073%=      5-min Rain = 0
KSM2 141233Z 03012KT 21/15 A3023 RMK A01 T02050154  RH  072%=      5-min Rain = 0
KSM2 141234Z 03012KT 21/15 A3023 RMK A01 T02050154  RH  072%=      5-min Rain = 0
KSM2 141235Z 02013KT 21/15 A3023 RMK A01 T02050154  RH  072%=      5-min Rain = 0
KSM2 141236Z 03012KT 21/15 A3023 RMK A01 T02050153  RH  072%=      5-min Rain = 0
KSM2 141237Z 02014KT 21/15 A3023 RMK A01 T02050152  RH  072%=      5-min Rain = 0
KSM2 141238Z 02013KT 21/15 A3023 RMK A01 T02050152  RH  071%=      5-min Rain = 0
KSM2 141239Z 02013KT 20/15 A3023 RMK A01 T02040151  RH  071%=      5-min Rain = 0
KSM2 141240Z 02013KT 20/15 A3024 RMK A01 T02040150  RH  071%=      5-min Rain = 0
KSM2 141241Z 02013KT 20/15 A3024 RMK A01 T02040150  RH  071%=      5-min Rain = 0
KSM2 141242Z 02013KT 20/15 A3024 RMK A01 T02040150  RH  071%=      5-min Rain = 0
KSM2 141243Z 02013KT 20/15 A3024 RMK A01 T02040150  RH  071%=      5-min Rain = 0
KSM2 141244Z 02010KT 20/15 A3024 RMK A01 T02040149  RH  071%=      5-min Rain = 0
KSM2 141245Z 03013KT 20/15 A3024 RMK A01 T02040150  RH  071%=      5-min Rain = 0
KSM2 141246Z 03013KT 21/15 A3024 RMK A01 T02050150  RH  071%=      5-min Rain = 0
KSM2 141247Z 03011KT 20/15 A3024 RMK A01 T02040149  RH  071%=      5-min Rain = 0
KSM2 141248Z 03013KT 20/15 A3024 RMK A01 T02040149  RH  071%=      5-min Rain = 0
KSM2 141249Z 03011KT 20/15 A3024 RMK A01 T02040149  RH  071%=      5-min Rain = 0
KSM2 141250Z 03014KT 20/15 A3024 RMK A01 T02040150  RH  071%=      5-min Rain = 0
KSM2 141251Z 03011KT 20/15 A3024 RMK A01 T02040150  RH  071%=      5-min Rain = 0
KSM2 141252Z 03010KT 20/15 A3024 RMK A01 T02040150  RH  071%=      5-min Rain = 0
KSM2 141253Z 04013KT 20/15 A3024 RMK A01 T02040149  RH  071%=      5-min Rain = 0
KSM2 141254Z 04011KT 20/15 A3024 RMK A01 T02040149  RH  071%=      5-min Rain = 0
KSM2 141255Z 03012KT 20/15 A3024 RMK A01 T02040150  RH  071%=      5-min Rain = 0
KSM2 141256Z 03012KT 20/15 A3024 RMK A01 T02040149  RH  071%=      5-min Rain = 0
KSM2 141257Z 03012KT 20/15 A3024 RMK A01 T02040149  RH  071%=      5-min Rain = 0
KSM2 141258Z 03010KT 20/15 A3024 RMK A01 T02040149  RH  071%=      5-min Rain = 0
KSM2 141259Z 04012KT 21/15 A3024 RMK A01 T02050150  RH  071%=      5-min Rain = 0
KSM2 141300Z 04011KT 21/15 A3024 RMK A01 T02050150  RH  071%=      5-min Rain = 0
KSM2 141301Z 03010KT 21/15 A3024 RMK A01 T02050150  RH  071%=      5-min Rain = 0
KSM2 141302Z 03013KT 21/15 A3024 RMK A01 T02050150  RH  070%=      5-min Rain = 0
KSM2 141303Z 03012KT 21/15 A3024 RMK A01 T02050150  RH  070%=      5-min Rain = 0
KSM2 141304Z 03013KT 21/15 A3024 RMK A01 T02050150  RH  070%=      5-min Rain = 0
KSM2 141305Z 03014KT 21/15 A3024 RMK A01 T02050150  RH  070%=      5-min Rain = 0
KSM2 141306Z 03012KT 21/15 A3024 RMK A01 T02050150  RH  070%=      5-min Rain = 0
KSM2 141307Z 02011KT 21/15 A3025 RMK A01 T02050149  RH  070%=      5-min Rain = 0
KSM2 141308Z 03013KT 21/15 A3025 RMK A01 T02050149  RH  070%=      5-min Rain = 0
KSM2 141309Z 03012KT 21/15 A3025 RMK A01 T02050149  RH  070%=      5-min Rain = 0
KSM2 141310Z 03013KT 21/15 A3024 RMK A01 T02050149  RH  070%=      5-min Rain = 0
KSM2 141311Z 03012KT 21/15 A3025 RMK A01 T02050149  RH  070%=      5-min Rain = 0
KSM2 141312Z 03013KT 21/15 A3024 RMK A01 T02050149  RH  070%=      5-min Rain = 0
KSM2 141313Z 03014KT 21/15 A3024 RMK A01 T02050148  RH  070%=      5-min Rain = 0
KSM2 141314Z 02012KT 21/15 A3024 RMK A01 T02060149  RH  070%=      5-min Rain = 0
KSM2 141315Z 03013KT 21/15 A3024 RMK A01 T02060149  RH  070%=      5-min Rain = 0
KSM2 141316Z 03013KT 21/15 A3024 RMK A01 T02050148  RH  070%=      5-min Rain = 0
KSM2 141317Z 02012KT 21/15 A3024 RMK A01 T02050148  RH  070%=      5-min Rain = 0
KSM2 141318Z 03012KT 21/15 A3025 RMK A01 T02060149  RH  070%=      5-min Rain = 0
KSM2 141319Z 03011KT 21/15 A3025 RMK A01 T02070149  RH  069%=      5-min Rain = 0
KSM2 141320Z 03012KT 21/15 A3025 RMK A01 T02070149  RH  069%=      5-min Rain = 0
KSM2 141321Z 03013KT 21/15 A3025 RMK A01 T02080149  RH  069%=      5-min Rain = 0
KSM2 141322Z 03013KT 21/15 A3025 RMK A01 T02080149  RH  069%=      5-min Rain = 0
KSM2 141323Z 03013KT 21/15 A3025 RMK A01 T02080149  RH  069%=      5-min Rain = 0
KSM2 141324Z 03014KT 21/15 A3025 RMK A01 T02080149  RH  069%=      5-min Rain = 0
KSM2 141325Z 04012KT 21/15 A3025 RMK A01 T02090150  RH  069%=      5-min Rain = 0
KSM2 141326Z 03012KT 21/15 A3025 RMK A01 T02110151  RH  069%=      5-min Rain = 0
KSM2 141327Z 03013G18KT 21/15 A3025 RMK A01 T02120151  RH  068%=      5-min Rain = 0
KSM2 141328Z 04012KT 21/15 A3025 RMK A01 T02130152  RH  068%=      5-min Rain = 0
KSM2 141329Z 03012KT 21/15 A3025 RMK A01 T02140152  RH  068%=      5-min Rain = 0
KSM2 141330Z 04014KT 21/15 A3025 RMK A01 T02140151  RH  067%=      5-min Rain = 0
KSM2 141331Z 04013KT 22/15 A3025 RMK A01 T02150151  RH  067%=      5-min Rain = 0
KSM2 141332Z 04011KT 21/15 A3026 RMK A01 T02140152  RH  067%=      5-min Rain = 0
KSM2 141333Z 04013KT 21/15 A3026 RMK A01 T02140151  RH  068%=      5-min Rain = 0
KSM2 141334Z 03012KT 21/15 A3026 RMK A01 T02130151  RH  068%=      5-min Rain = 0
KSM2 141335Z 03010KT 21/15 A3026 RMK A01 T02120151  RH  068%=      5-min Rain = 0
KSM2 141336Z 03010KT 21/15 A3026 RMK A01 T02120151  RH  068%=      5-min Rain = 0
KSM2 141337Z 03014KT 21/15 A3026 RMK A01 T02130152  RH  068%=      5-min Rain = 0
KSM2 141338Z 03013KT 21/15 A3026 RMK A01 T02130152  RH  068%=      5-min Rain = 0
KSM2 141339Z 03012KT 21/15 A3026 RMK A01 T02130152  RH  068%=      5-min Rain = 0
KSM2 141340Z 03011KT 21/15 A3026 RMK A01 T02120152  RH  068%=      5-min Rain = 0
KSM2 141341Z 03009KT 21/15 A3026 RMK A01 T02120152  RH  069%=      5-min Rain = 0
KSM2 141342Z 02011KT 21/15 A3026 RMK A01 T02120152  RH  068%=      5-min Rain = 0
KSM2 141343Z 02011KT 21/15 A3026 RMK A01 T02120152  RH  068%=      5-min Rain = 0
KSM2 141344Z 03010KT 21/15 A3026 RMK A01 T02120152  RH  069%=      5-min Rain = 0
KSM2 141345Z 03014KT 21/15 A3026 RMK A01 T02120152  RH  069%=      5-min Rain = 0
KSM2 141346Z 04011KT 21/15 A3026 RMK A01 T02130153  RH  068%=      5-min Rain = 0
KSM2 141347Z 03011KT 22/15 A3026 RMK A01 T02150153  RH  068%=      5-min Rain = 0
KSM2 141348Z 03010KT 22/15 A3026 RMK A01 T02160153  RH  067%=      5-min Rain = 0
KSM2 141349Z 02010G15KT 22/15 A3026 RMK A01 T02180154  RH  067%=      5-min Rain = 0
KSM2 141350Z 02013KT 22/15 A3026 RMK A01 T02190153  RH  066%=      5-min Rain = 0
KSM2 141351Z 02010KT 22/15 A3026 RMK A01 T02170152  RH  067%=      5-min Rain = 0
KSM2 141352Z 02013KT 22/15 A3026 RMK A01 T02170153  RH  067%=      5-min Rain = 0
KSM2 141353Z 02012KT 22/15 A3027 RMK A01 T02170153  RH  067%=      5-min Rain = 0
KSM2 141354Z 03009KT 22/15 A3026 RMK A01 T02180153  RH  067%=      5-min Rain = 0
KSM2 141355Z 03010KT 22/15 A3026 RMK A01 T02190154  RH  066%=      5-min Rain = 0
KSM2 141356Z 03011KT 22/15 A3026 RMK A01 T02200154  RH  066%=      5-min Rain = 0
KSM2 141357Z 03012KT 22/15 A3026 RMK A01 T02190154  RH  066%=      5-min Rain = 0
KSM2 141358Z 03012KT 22/15 A3026 RMK A01 T02200154  RH  066%=      5-min Rain = 0
KSM2 141359Z 03010KT 22/16 A3026 RMK A01 T02200155  RH  066%=      5-min Rain = 0
KSM2 141400Z 03011KT 22/16 A3026 RMK A01 T02220155  RH  066%=      5-min Rain = 0
KSM2 141401Z 03011KT 22/16 A3026 RMK A01 T02220155  RH  066%=      5-min Rain = 0
KSM2 141402Z 04011KT 22/16 A3026 RMK A01 T02230155  RH  065%=      5-min Rain = 0
KSM2 141403Z 03011KT 22/16 A3026 RMK A01 T02240156  RH  065%=      5-min Rain = 0
KSM2 141404Z 04010KT 23/16 A3026 RMK A01 T02270157  RH  065%=      5-min Rain = 0
KSM2 141405Z 04010KT 23/16 A3026 RMK A01 T02280156  RH  064%=      5-min Rain = 0
KSM2 141406Z 03012KT 23/16 A3026 RMK A01 T02290156  RH  064%=      5-min Rain = 0
KSM2 141407Z 03011KT 23/16 A3026 RMK A01 T02290157  RH  064%=      5-min Rain = 0
KSM2 141408Z 04011KT 23/16 A3026 RMK A01 T02280156  RH  064%=      5-min Rain = 0
KSM2 141409Z 04010KT 23/16 A3026 RMK A01 T02300157  RH  063%=      5-min Rain = 0
KSM2 141410Z 03013KT 23/16 A3026 RMK A01 T02310156  RH  063%=      5-min Rain = 0
KSM2 141411Z 03012KT 23/16 A3026 RMK A01 T02310156  RH  063%=      5-min Rain = 0
KSM2 141412Z 03012KT 23/16 A3026 RMK A01 T02310156  RH  063%=      5-min Rain = 0
KSM2 141413Z 03010KT 23/16 A3026 RMK A01 T02300157  RH  063%=      5-min Rain = 0
KSM2 141414Z 04009KT 23/16 A3026 RMK A01 T02290157  RH  064%=      5-min Rain = 0
KSM2 141415Z 05011KT 23/16 A3026 RMK A01 T02290157  RH  064%=      5-min Rain = 0
KSM2 141416Z 04011KT 23/16 A3026 RMK A01 T02270157  RH  064%=      5-min Rain = 0
KSM2 141417Z 04012KT 23/16 A3026 RMK A01 T02260157  RH  065%=      5-min Rain = 0
KSM2 141418Z 04011KT 23/16 A3026 RMK A01 T02250156  RH  065%=      5-min Rain = 0
KSM2 141419Z 04012KT 23/16 A3026 RMK A01 T02260156  RH  065%=      5-min Rain = 0
KSM2 141420Z 03012KT 23/16 A3027 RMK A01 T02270157  RH  065%=      5-min Rain = 0
KSM2 141421Z 03012KT 23/16 A3027 RMK A01 T02270157  RH  064%=      5-min Rain = 0
KSM2 141422Z 03013KT 23/16 A3027 RMK A01 T02280157  RH  064%=      5-min Rain = 0
KSM2 141423Z 03011KT 23/16 A3027 RMK A01 T02290157  RH  064%=      5-min Rain = 0
KSM2 141424Z 02014KT 23/16 A3027 RMK A01 T02290158  RH  064%=      5-min Rain = 0
KSM2 141425Z 04013KT 23/16 A3027 RMK A01 T02300157  RH  064%=      5-min Rain = 0
KSM2 141426Z 03012KT 23/16 A3027 RMK A01 T02300158  RH  064%=      5-min Rain = 0
KSM2 141427Z 03012KT 23/16 A3027 RMK A01 T02310158  RH  063%=      5-min Rain = 0
KSM2 141428Z 03014KT 23/16 A3027 RMK A01 T02320158  RH  063%=      5-min Rain = 0
KSM2 141429Z 03013KT 23/16 A3027 RMK A01 T02320158  RH  063%=      5-min Rain = 0
KSM2 141430Z 03013KT 23/16 A3027 RMK A01 T02320158  RH  063%=      5-min Rain = 0
KSM2 141431Z 03011KT 23/16 A3026 RMK A01 T02320158  RH  063%=      5-min Rain = 0
KSM2 141432Z 02010KT 23/16 A3026 RMK A01 T02320158  RH  063%=      5-min Rain = 0
KSM2 141433Z 02014KT 23/16 A3026 RMK A01 T02330157  RH  062%=      5-min Rain = 0
KSM2 141434Z 02013KT 23/16 A3026 RMK A01 T02320157  RH  063%=      5-min Rain = 0
KSM2 141435Z 03012KT 23/16 A3027 RMK A01 T02320157  RH  063%=      5-min Rain = 0
KSM2 141436Z 02014KT 23/16 A3027 RMK A01 T02330157  RH  062%=      5-min Rain = 0
KSM2 141437Z 02013KT 23/16 A3027 RMK A01 T02340157  RH  062%=      5-min Rain = 0
KSM2 141438Z 01014KT 24/16 A3027 RMK A01 T02360158  RH  061%=      5-min Rain = 0
KSM2 141439Z 01016KT 24/16 A3027 RMK A01 T02380157  RH  061%=      5-min Rain = 0
KSM2 141440Z 02016KT 24/16 A3027 RMK A01 T02380157  RH  061%=      5-min Rain = 0
KSM2 141441Z 01014KT 24/16 A3027 RMK A01 T02370157  RH  061%=      5-min Rain = 0
KSM2 141442Z 01015KT 24/16 A3027 RMK A01 T02360157  RH  061%=      5-min Rain = 0
KSM2 141443Z 02014KT 23/16 A3027 RMK A01 T02340156  RH  062%=      5-min Rain = 0
KSM2 141444Z 01015KT 23/16 A3027 RMK A01 T02320156  RH  062%=      5-min Rain = 0
KSM2 141445Z 01016KT 23/16 A3027 RMK A01 T02310156  RH  063%=      5-min Rain = 0
KSM2 141446Z 01015KT 23/16 A3027 RMK A01 T02310156  RH  063%=      5-min Rain = 0
KSM2 141447Z 01013KT 23/16 A3027 RMK A01 T02330156  RH  062%=      5-min Rain = 0
KSM2 141448Z 01015KT 24/16 A3027 RMK A01 T02360157  RH  061%=      5-min Rain = 0
KSM2 141449Z 01015KT 24/16 A3027 RMK A01 T02360156  RH  061%=      5-min Rain = 0
KSM2 141450Z 01017KT 24/16 A3027 RMK A01 T02350156  RH  061%=      5-min Rain = 0
KSM2 141451Z 02014KT 24/16 A3027 RMK A01 T02350156  RH  061%=      5-min Rain = 0
KSM2 141452Z 01014KT 24/16 A3027 RMK A01 T02360156  RH  061%=      5-min Rain = 0
KSM2 141453Z 01017KT 24/16 A3027 RMK A01 T02380156  RH  060%=      5-min Rain = 0
KSM2 141454Z 01015KT 24/16 A3027 RMK A01 T02380156  RH  060%=      5-min Rain = 0
KSM2 141455Z 02016KT 24/16 A3027 RMK A01 T02380156  RH  060%=      5-min Rain = 0
KSM2 141456Z 01014KT 24/16 A3027 RMK A01 T02360156  RH  061%=      5-min Rain = 0
KSM2 141457Z 01015KT 24/16 A3027 RMK A01 T02370156  RH  060%=      5-min Rain = 0
KSM2 141458Z 01011KT 24/16 A3027 RMK A01 T02390157  RH  060%=      5-min Rain = 0
KSM2 141459Z 02014KT 24/16 A3027 RMK A01 T02420157  RH  059%=      5-min Rain = 0
KSM2 141500Z 02014KT 24/16 A3027 RMK A01 T02420157  RH  059%=      5-min Rain = 0
KSM2 141501Z 02012KT 24/16 A3027 RMK A01 T02420158  RH  059%=      5-min Rain = 0
KSM2 141502Z 01014KT 25/16 A3027 RMK A01 T02450158  RH  058%=      5-min Rain = 0
KSM2 141503Z 01014KT 25/16 A3027 RMK A01 T02470158  RH  058%=      5-min Rain = 0
KSM2 141504Z 02012KT 25/16 A3027 RMK A01 T02460158  RH  058%=      5-min Rain = 0
KSM2 141505Z 02012KT 25/16 A3027 RMK A01 T02460158  RH  058%=      5-min Rain = 0
KSM2 141506Z 01010KT 25/16 A3027 RMK A01 T02470159  RH  058%=      5-min Rain = 0
KSM2 141507Z 01011KT 25/16 A3026 RMK A01 T02480159  RH  057%=      5-min Rain = 0
KSM2 141508Z 01012KT 25/16 A3026 RMK A01 T02470158  RH  058%=      5-min Rain = 0
KSM2 141509Z 01011KT 25/16 A3026 RMK A01 T02460160  RH  059%=      5-min Rain = 0
KSM2 141510Z 02010KT 25/16 A3026 RMK A01 T02470159  RH  058%=      5-min Rain = 0
KSM2 141511Z 01011KT 25/16 A3026 RMK A01 T02490160  RH  058%=      5-min Rain = 0
KSM2 141512Z 02012KT 25/16 A3026 RMK A01 T02530160  RH  057%=      5-min Rain = 0
KSM2 141513Z 02013KT 26/16 A3026 RMK A01 T02550161  RH  056%=      5-min Rain = 0
KSM2 141514Z 02010KT 25/16 A3026 RMK A01 T02530160  RH  056%=      5-min Rain = 0
KSM2 141515Z 02012KT 25/16 A3026 RMK A01 T02520161  RH  057%=      5-min Rain = 0
KSM2 141516Z 02012KT 25/16 A3026 RMK A01 T02520160  RH  057%=      5-min Rain = 0
KSM2 141517Z 01014KT 25/16 A3027 RMK A01 T02520161  RH  057%=      5-min Rain = 0
KSM2 141518Z 02013KT 25/16 A3027 RMK A01 T02510161  RH  057%=      5-min Rain = 0
KSM2 141519Z 02012KT 25/16 A3027 RMK A01 T02510161  RH  057%=      5-min Rain = 0
KSM2 141520Z 02013KT 25/16 A3027 RMK A01 T02540162  RH  057%=      5-min Rain = 0
KSM2 141521Z 02014KT 26/16 A3027 RMK A01 T02550161  RH  056%=      5-min Rain = 0
KSM2 141522Z 03012KT 25/16 A3027 RMK A01 T02540162  RH  057%=      5-min Rain = 0
KSM2 141523Z 02011KT 26/16 A3027 RMK A01 T02560163  RH  056%=      5-min Rain = 0
KSM2 141524Z 02012KT 26/16 A3026 RMK A01 T02590164  RH  056%=      5-min Rain = 0
KSM2 141525Z 02011KT 26/16 A3026 RMK A01 T02610164  RH  055%=      5-min Rain = 0
KSM2 141526Z 01012KT 26/16 A3026 RMK A01 T02610163  RH  055%=      5-min Rain = 0
KSM2 141527Z 00010KT 26/16 A3026 RMK A01 T02610164  RH  055%=      5-min Rain = 0
KSM2 141528Z 01010KT 26/16 A3026 RMK A01 T02600164  RH  055%=      5-min Rain = 0
KSM2 141529Z 01009KT 26/16 A3026 RMK A01 T02610164  RH  055%=      5-min Rain = 0
KSM2 141530Z 03012KT 26/17 A3026 RMK A01 T02620166  RH  055%=      5-min Rain = 0
KSM2 141531Z 03012KT 27/17 A3026 RMK A01 T02650165  RH  054%=      5-min Rain = 0
KSM2 141532Z 02013KT 27/17 A3026 RMK A01 T02650165  RH  054%=      5-min Rain = 0
KSM2 141533Z 02013KT 26/16 A3026 RMK A01 T02620164  RH  055%=      5-min Rain = 0
KSM2 141534Z 02012KT 26/16 A3026 RMK A01 T02610164  RH  055%=      5-min Rain = 0
KSM2 141535Z 02011KT 26/16 A3026 RMK A01 T02610164  RH  055%=      5-min Rain = 0
KSM2 141536Z 01012KT 26/17 A3026 RMK A01 T02600165  RH  056%=      5-min Rain = 0
KSM2 141537Z 01012KT 26/16 A3026 RMK A01 T02620164  RH  055%=      5-min Rain = 0
KSM2 141538Z 02012KT 26/16 A3026 RMK A01 T02630164  RH  054%=      5-min Rain = 0
KSM2 141539Z 02011KT 26/16 A3026 RMK A01 T02630164  RH  054%=      5-min Rain = 0
KSM2 141540Z 03010KT 26/16 A3026 RMK A01 T02630164  RH  054%=      5-min Rain = 0
KSM2 141541Z 02009KT 27/16 A3026 RMK A01 T02650164  RH  054%=      5-min Rain = 0
KSM2 141542Z 02008KT 27/17 A3026 RMK A01 T02660165  RH  054%=      5-min Rain = 0
KSM2 141543Z 01011KT 27/16 A3026 RMK A01 T02680164  RH  053%=      5-min Rain = 0
KSM2 141544Z 02008KT 27/16 A3026 RMK A01 T02680164  RH  053%=      5-min Rain = 0
KSM2 141545Z 03010KT 27/17 A3026 RMK A01 T02700165  RH  053%=      5-min Rain = 0
KSM2 141546Z 02011KT 27/16 A3026 RMK A01 T02710164  RH  052%=      5-min Rain = 0
KSM2 141547Z 04010KT 27/17 A3026 RMK A01 T02700165  RH  053%=      5-min Rain = 0
KSM2 141548Z 04011KT 27/16 A3026 RMK A01 T02720164  RH  052%=      5-min Rain = 0
KSM2 141549Z 02009KT 27/16 A3026 RMK A01 T02700164  RH  052%=      5-min Rain = 0
KSM2 141550Z 02010KT 27/16 A3026 RMK A01 T02700164  RH  052%=      5-min Rain = 0
KSM2 141551Z 04012KT 27/16 A3026 RMK A01 T02730164  RH  051%=      5-min Rain = 0
KSM2 141552Z 04012KT 28/16 A3026 RMK A01 T02750164  RH  051%=      5-min Rain = 0
KSM2 141553Z 04012KT 28/16 A3026 RMK A01 T02750164  RH  051%=      5-min Rain = 0
KSM2 141554Z 05010KT 28/16 A3026 RMK A01 T02750164  RH  051%=      5-min Rain = 0
KSM2 141555Z 05010KT 28/17 A3026 RMK A01 T02760165  RH  051%=      5-min Rain = 0
KSM2 141556Z 04010KT 28/17 A3026 RMK A01 T02770165  RH  050%=      5-min Rain = 0
KSM2 141557Z 05010KT 28/16 A3026 RMK A01 T02780164  RH  050%=      5-min Rain = 0
KSM2 141558Z 04012KT 28/16 A3025 RMK A01 T02780163  RH  049%=      5-min Rain = 0
KSM2 141559Z 03009KT 28/17 A3025 RMK A01 T02790165  RH  050%=      5-min Rain = 0
KSM2 141600Z 04009KT 28/16 A3025 RMK A01 T02810164  RH  049%=      5-min Rain = 0
KSM2 141601Z 05010KT 28/17 A3025 RMK A01 T02790165  RH  050%=      5-min Rain = 0
KSM2 141602Z 04009KT 28/17 A3025 RMK A01 T02780166  RH  051%=      5-min Rain = 0
KSM2 141603Z 03013KT 28/16 A3025 RMK A01 T02800163  RH  049%=      5-min Rain = 0
KSM2 141604Z 05010KT 28/16 A3025 RMK A01 T02830163  RH  048%=      5-min Rain = 0
KSM2 141605Z 05011KT 28/16 A3025 RMK A01 T02820162  RH  048%=      5-min Rain = 0
KSM2 141606Z 04011KT 28/16 A3025 RMK A01 T02810163  RH  049%=      5-min Rain = 0
KSM2 141607Z 02008KT 28/16 A3025 RMK A01 T02820163  RH  048%=      5-min Rain = 0
KSM2 141608Z 02009KT 29/16 A3025 RMK A01 T02860163  RH  047%=      5-min Rain = 0
KSM2 141609Z 02011KT 29/16 A3024 RMK A01 T02860162  RH  047%=      5-min Rain = 0
KSM2 141610Z 02010KT 28/16 A3024 RMK A01 T02820161  RH  048%=      5-min Rain = 0
KSM2 141611Z 04010KT 28/16 A3024 RMK A01 T02800162  RH  049%=      5-min Rain = 0
KSM2 141612Z 03008KT 28/16 A3024 RMK A01 T02800161  RH  048%=      5-min Rain = 0
KSM2 141613Z 02010KT 28/16 A3024 RMK A01 T02840156  RH  046%=      5-min Rain = 0
KSM2 141614Z 03011KT 29/15 A3024 RMK A01 T02880152  RH  043%=      5-min Rain = 0
KSM2 141615Z 03012KT 29/16 A3024 RMK A01 T02870156  RH  045%=      5-min Rain = 0
KSM2 141616Z 02011KT 29/16 A3024 RMK A01 T02850157  RH  046%=      5-min Rain = 0
KSM2 141617Z 02009KT 29/16 A3024 RMK A01 T02860158  RH  046%=      5-min Rain = 0
KSM2 141618Z 02009KT 29/16 A3024 RMK A01 T02870160  RH  046%=      5-min Rain = 0
KSM2 141619Z 03010KT 29/16 A3023 RMK A01 T02880158  RH  045%=      5-min Rain = 0
KSM2 141620Z 02010KT 29/16 A3023 RMK A01 T02880156  RH  045%=      5-min Rain = 0
KSM2 141621Z 04007KT 29/16 A3023 RMK A01 T02880155  RH  044%=      5-min Rain = 0
KSM2 141622Z 06009KT 29/15 A3023 RMK A01 T02900154  RH  044%=      5-min Rain = 0
KSM2 141623Z 06011KT 29/15 A3023 RMK A01 T02920153  RH  043%=      5-min Rain = 0
KSM2 141624Z 06009KT 29/16 A3023 RMK A01 T02910155  RH  044%=      5-min Rain = 0
KSM2 141625Z 06007KT 29/15 A3023 RMK A01 T02860152  RH  044%=      5-min Rain = 0
KSM2 141626Z 06008KT 29/15 A3023 RMK A01 T02860153  RH  044%=      5-min Rain = 0
KSM2 141627Z 06007KT 29/15 A3023 RMK A01 T02890154  RH  044%=      5-min Rain = 0
KSM2 141628Z 05009KT 29/15 A3022 RMK A01 T02930150  RH  042%=      5-min Rain = 0
KSM2 141629Z 06010KT 30/15 A3022 RMK A01 T02950151  RH  041%=      5-min Rain = 0
KSM2 141630Z 06007KT 29/15 A3022 RMK A01 T02940150  RH  042%=      5-min Rain = 0
KSM2 141631Z 05006KT 29/15 A3022 RMK A01 T02930153  RH  043%=      5-min Rain = 0
KSM2 141632Z 06009KT 29/15 A3022 RMK A01 T02940151  RH  042%=      5-min Rain = 0
KSM2 141633Z 07007KT 29/15 A3021 RMK A01 T02940152  RH  042%=      5-min Rain = 0
KSM2 141634Z 06010KT 30/15 A3021 RMK A01 T02970154  RH  042%=      5-min Rain = 0
KSM2 141635Z 06009KT 30/15 A3021 RMK A01 T02960153  RH  042%=      5-min Rain = 0
KSM2 141636Z 06008KT 29/15 A3021 RMK A01 T02930154  RH  043%=      5-min Rain = 0
KSM2 141637Z 07010KT 29/15 A3021 RMK A01 T02920152  RH  042%=      5-min Rain = 0
KSM2 141638Z 07008KT 30/15 A3021 RMK A01 T02950154  RH  042%=      5-min Rain = 0
KSM2 141639Z 06008KT 30/15 A3021 RMK A01 T02990149  RH  040%=      5-min Rain = 0
KSM2 141640Z 09011KT 30/15 A3021 RMK A01 T03010146  RH  039%=      5-min Rain = 0
KSM2 141641Z 06011KT 30/15 A3021 RMK A01 T03040146  RH  038%=      5-min Rain = 0
KSM2 141642Z 05010KT 30/15 A3021 RMK A01 T03040146  RH  038%=      5-min Rain = 0
KSM2 141643Z 09010KT 30/15 A3021 RMK A01 T03010149  RH  040%=      5-min Rain = 0
KSM2 141644Z 08011KT 30/15 A3021 RMK A01 T03020149  RH  039%=      5-min Rain = 0
KSM2 141645Z 09011KT 30/15 A3021 RMK A01 T03030149  RH  039%=      5-min Rain = 0
KSM2 141646Z 08010G15KT 30/15 A3021 RMK A01 T03030150  RH  039%=      5-min Rain = 0
KSM2 141647Z 07010KT 30/15 A3021 RMK A01 T03020152  RH  040%=      5-min Rain = 0
KSM2 141648Z 09009KT 30/15 A302 RMK A01 T03000152  RH  041%=      5-min Rain = 0
KSM2 141649Z 09010KT 30/15 A302 RMK A01 T03020154  RH  041%=      5-min Rain = 0
KSM2 141650Z 09012KT 31/15 A302 RMK A01 T03050151  RH  039%=      5-min Rain = 0
KSM2 141651Z 10012KT 31/15 A302 RMK A01 T03060149  RH  039%=      5-min Rain = 0
KSM2 141652Z 10011G16KT 30/15 A302 RMK A01 T03030150  RH  039%=      5-min Rain = 0
KSM2 141653Z 09012G17KT 30/15 A302 RMK A01 T03010147  RH  039%=      5-min Rain = 0
KSM2 141654Z 09014KT 30/14 A302 RMK A01 T03010143  RH  038%=      5-min Rain = 0
KSM2 141655Z 08010KT 30/14 A302 RMK A01 T03040140  RH  037%=      5-min Rain = 0
KSM2 141656Z 07010KT 31/14 A302 RMK A01 T03080137  RH  035%=      5-min Rain = 0
KSM2 141657Z 09012KT 31/14 A302 RMK A01 T03090142  RH  036%=      5-min Rain = 0
KSM2 141658Z 08011KT 31/14 A302 RMK A01 T03110143  RH  036%=      5-min Rain = 0
KSM2 141659Z 08010KT 31/14 A302 RMK A01 T03120142  RH  036%=      5-min Rain = 0
KSM2 141700Z 09012KT 31/14 A302 RMK A01 T03130143  RH  036%=      5-min Rain = 0
KSM2 141701Z 09009KT 31/15 A302 RMK A01 T03120146  RH  036%=      5-min Rain = 0
KSM2 141702Z 10009KT 31/15 A302 RMK A01 T03120147  RH  037%=      5-min Rain = 0
KSM2 141703Z 11010KT 31/15 A302 RMK A01 T03120148  RH  037%=      5-min Rain = 0
KSM2 141704Z 09009KT 32/15 A302 RMK A01 T03150148  RH  036%=      5-min Rain = 0
KSM2 141705Z 10014KT 32/15 A302 RMK A01 T03160146  RH  036%=      5-min Rain = 0
KSM2 141706Z 09014KT 32/14 A302 RMK A01 T03150141  RH  035%=      5-min Rain = 0
KSM2 141707Z 10010KT 31/14 A302 RMK A01 T03110140  RH  035%=      5-min Rain = 0
KSM2 141708Z 08010KT 31/14 A302 RMK A01 T03100141  RH  036%=      5-min Rain = 0
KSM2 141709Z 10011KT 31/14 A302 RMK A01 T03130140  RH  035%=      5-min Rain = 0
KSM2 141710Z 09012KT 31/14 A302 RMK A01 T03130139  RH  035%=      5-min Rain = 0
KSM2 141711Z 09013KT 32/14 A302 RMK A01 T03170139  RH  034%=      5-min Rain = 0
KSM2 141712Z 10011KT 32/14 A302 RMK A01 T03180141  RH  034%=      5-min Rain = 0
KSM2 141713Z 08012G18KT 32/14 A302 RMK A01 T03190144  RH  035%=      5-min Rain = 0
KSM2 141714Z 10014KT 32/14 A302 RMK A01 T03180143  RH  035%=      5-min Rain = 0
KSM2 141715Z 09009KT 32/14 A302 RMK A01 T03180143  RH  035%=      5-min Rain = 0
KSM2 141716Z 10012KT 32/14 A302 RMK A01 T03200138  RH  033%=      5-min Rain = 0
KSM2 141717Z 10011KT 32/14 A302 RMK A01 T03190135  RH  033%=      5-min Rain = 0
KSM2 141718Z 09011KT 32/13 A302 RMK A01 T03160132  RH  033%=      5-min Rain = 0
KSM2 141719Z 09012KT 32/13 A302 RMK A01 T03160134  RH  033%=      5-min Rain = 0
KSM2 141720Z 08012KT 32/13 A302 RMK A01 T03170133  RH  033%=      5-min Rain = 0
KSM2 141721Z 09010KT 32/13 A302 RMK A01 T03170134  RH  033%=      5-min Rain = 0
KSM2 141722Z 10010KT 32/14 A302 RMK A01 T03180140  RH  034%=      5-min Rain = 0
KSM2 141723Z 09012KT 32/14 A302 RMK A01 T03230138  RH  033%=      5-min Rain = 0
KSM2 141724Z 09015KT 33/13 A302 RMK A01 T03250131  RH  031%=      5-min Rain = 0
KSM2 141725Z 09014KT 33/13 A302 RMK A01 T03250128  RH  030%=      5-min Rain = 0
KSM2 141726Z 08013KT 32/13 A302 RMK A01 T03240127  RH  030%=      5-min Rain = 0
KSM2 141727Z 08011KT 32/13 A302 RMK A01 T03220127  RH  031%=      5-min Rain = 0
KSM2 141728Z 08012KT 32/13 A302 RMK A01 T03220129  RH  031%=      5-min Rain = 0
KSM2 141729Z 08011KT 32/13 A302 RMK A01 T03220129  RH  031%=      5-min Rain = 0
KSM2 141730Z 09010KT 32/13 A302 RMK A01 T03210132  RH  032%=      5-min Rain = 0
KSM2 141731Z 09011KT 32/13 A302 RMK A01 T03210133  RH  032%=      5-min Rain = 0
KSM2 141732Z 10013KT 32/13 A302 RMK A01 T03200132  RH  032%=      5-min Rain = 0
KSM2 141733Z 10014KT 32/13 A302 RMK A01 T03190130  RH  032%=      5-min Rain = 0
KSM2 141734Z 09012KT 32/13 A302 RMK A01 T03180132  RH  032%=      5-min Rain = 0
KSM2 141735Z 10012KT 32/13 A302 RMK A01 T03210131  RH  031%=      5-min Rain = 0
KSM2 141736Z 10013KT 32/13 A302 RMK A01 T03210130  RH  031%=      5-min Rain = 0
KSM2 141737Z 10012KT 32/13 A302 RMK A01 T03210132  RH  032%=      5-min Rain = 0
KSM2 141738Z 10013KT 32/13 A302 RMK A01 T03190131  RH  032%=      5-min Rain = 0
KSM2 141739Z 11011KT 32/13 A3019 RMK A01 T03190129  RH  032%=      5-min Rain = 0
KSM2 141740Z 11010KT 32/13 A3019 RMK A01 T03160129  RH  032%=      5-min Rain = 0
KSM2 141741Z 09009KT 32/13 A3019 RMK A01 T03150130  RH  032%=      5-min Rain = 0
KSM2 141742Z 10012G17KT 32/13 A3019 RMK A01 T03180132  RH  032%=      5-min Rain = 0
KSM2 141743Z 09015KT 32/13 A3019 RMK A01 T03230128  RH  031%=      5-min Rain = 0
KSM2 141744Z 09010KT 32/13 A3019 RMK A01 T03220128  RH  031%=      5-min Rain = 0
KSM2 141745Z 10014KT 33/13 A3019 RMK A01 T03260126  RH  030%=      5-min Rain = 0
KSM2 141746Z 11012KT 33/13 A3019 RMK A01 T03280125  RH  029%=      5-min Rain = 0
KSM2 141747Z 10014KT 33/13 A3019 RMK A01 T03270127  RH  030%=      5-min Rain = 0
KSM2 141748Z 10012KT 33/13 A3019 RMK A01 T03260126  RH  030%=      5-min Rain = 0
KSM2 141749Z 09014KT 33/12 A3019 RMK A01 T03270120  RH  028%=      5-min Rain = 0
KSM2 141750Z 09013KT 33/12 A3019 RMK A01 T03300119  RH  028%=      5-min Rain = 0
KSM2 141751Z 08013KT 33/12 A3019 RMK A01 T03320121  RH  028%=      5-min Rain = 0
KSM2 141752Z 09009KT 33/13 A3019 RMK A01 T03320125  RH  028%=      5-min Rain = 0
KSM2 141753Z 09012KT 33/13 A3019 RMK A01 T03330127  RH  029%=      5-min Rain = 0
KSM2 141754Z 08010KT 33/13 A3019 RMK A01 T03320130  RH  029%=      5-min Rain = 0
KSM2 141755Z 09010KT 33/13 A3019 RMK A01 T03300131  RH  030%=      5-min Rain = 0
KSM2 141756Z 08012KT 33/13 A3019 RMK A01 T03300127  RH  029%=      5-min Rain = 0
KSM2 141757Z 07011KT 33/12 A3019 RMK A01 T03320123  RH  028%=      5-min Rain = 0
KSM2 141758Z 08009KT 33/13 A3019 RMK A01 T03320125  RH  028%=      5-min Rain = 0
KSM2 141759Z 07012KT 33/12 A3019 RMK A01 T03310118  RH  027%=      5-min Rain = 0
KSM2 141800Z 07011KT 33/12 A3019 RMK A01 T03300116  RH  027%=      5-min Rain = 0
KSM2 141801Z 08012KT 33/12 A3019 RMK A01 T03310115  RH  027%=      5-min Rain = 0
KSM2 141802Z 08009KT 33/12 A3019 RMK A01 T03340121  RH  027%=      5-min Rain = 0
KSM2 141803Z 08011KT 34/13 A302 RMK A01 T03380126  RH  028%=      5-min Rain = 0
KSM2 141804Z 07009KT 34/12 A302 RMK A01 T03350123  RH  028%=      5-min Rain = 0
KSM2 141805Z 06008KT 33/12 A302 RMK A01 T03300122  RH  028%=      5-min Rain = 0
KSM2 141806Z 06010G15KT 33/12 A302 RMK A01 T03290121  RH  028%=      5-min Rain = 0
KSM2 141807Z 07012KT 33/12 A302 RMK A01 T03330119  RH  027%=      5-min Rain = 0
KSM2 141808Z 06006KT 33/12 A302 RMK A01 T03340117  RH  027%=      5-min Rain = 0
KSM2 141809Z 06013KT 33/12 A302 RMK A01 T03320119  RH  027%=      5-min Rain = 0
KSM2 141810Z 07014KT 33/12 A302 RMK A01 T03310118  RH  027%=      5-min Rain = 0
KSM2 141811Z 06015KT 33/12 A302 RMK A01 T03300118  RH  027%=      5-min Rain = 0
KSM2 141812Z 06011KT 33/12 A302 RMK A01 T03280115  RH  027%=      5-min Rain = 0
KSM2 141813Z 06008KT 33/11 A302 RMK A01 T03260114  RH  028%=      5-min Rain = 0
KSM2 141814Z 06010G16KT 33/12 A302 RMK A01 T03250116  RH  028%=      5-min Rain = 0
KSM2 141815Z 06012KT 33/12 A302 RMK A01 T03250120  RH  029%=      5-min Rain = 0
KSM2 141816Z 06014KT 32/12 A302 RMK A01 T03240123  RH  029%=      5-min Rain = 0
KSM2 141817Z 06012KT 33/12 A302 RMK A01 T03280123  RH  029%=      5-min Rain = 0
KSM2 141818Z 05010KT 33/13 A302 RMK A01 T03320125  RH  029%=      5-min Rain = 0
KSM2 141819Z 04010KT 33/12 A302 RMK A01 T03330123  RH  028%=      5-min Rain = 0
KSM2 141820Z 03012G17KT 34/13 A302 RMK A01 T03350128  RH  029%=      5-min Rain = 0
KSM2 141821Z 03013KT 33/13 A3019 RMK A01 T03330126  RH  028%=      5-min Rain = 0
KSM2 141822Z 04015KT 33/13 A3019 RMK A01 T03300127  RH  029%=      5-min Rain = 0
KSM2 141823Z 04015KT 33/12 A302 RMK A01 T03310122  RH  028%=      5-min Rain = 0
KSM2 141824Z 04013KT 33/12 A302 RMK A01 T03330121  RH  028%=      5-min Rain = 0
KSM2 141825Z 06011KT 33/12 A302 RMK A01 T03310122  RH  028%=      5-min Rain = 0
KSM2 141826Z 05008KT 33/12 A302 RMK A01 T03270118  RH  028%=      5-min Rain = 0
KSM2 141827Z 06010KT 33/12 A302 RMK A01 T03260121  RH  029%=      5-min Rain = 0
KSM2 141828Z 07008KT 33/13 A302 RMK A01 T03270126  RH  030%=      5-min Rain = 0
KSM2 141829Z 07007KT 33/13 A302 RMK A01 T03300128  RH  029%=      5-min Rain = 0
KSM2 141830Z 07011KT 33/13 A302 RMK A01 T03330128  RH  029%=      5-min Rain = 0
KSM2 141831Z 07010KT 33/12 A302 RMK A01 T03330124  RH  028%=      5-min Rain = 0
KSM2 141832Z 06010G15KT 33/12 A302 RMK A01 T03310123  RH  028%=      5-min Rain = 0
KSM2 141833Z 04014KT 33/12 A3019 RMK A01 T03340123  RH  028%=      5-min Rain = 0
KSM2 141834Z 03012KT 34/12 A3019 RMK A01 T03360120  RH  027%=      5-min Rain = 0
KSM2 141835Z 04013KT 34/12 A3019 RMK A01 T03370122  RH  027%=      5-min Rain = 0
KSM2 141836Z 05012KT 34/12 A3019 RMK A01 T03360122  RH  027%=      5-min Rain = 0
KSM2 141837Z 05011KT 33/12 A3019 RMK A01 T03300121  RH  028%=      5-min Rain = 0
KSM2 141838Z 05012G18KT 33/12 A3019 RMK A01 T03270119  RH  028%=      5-min Rain = 0
KSM2 141839Z 05016KT 33/12 A3019 RMK A01 T03270116  RH  028%=      5-min Rain = 0
KSM2 141840Z 05011KT 33/12 A3019 RMK A01 T03260117  RH  028%=      5-min Rain = 0
KSM2 141841Z 05010KT 33/12 A3019 RMK A01 T03260118  RH  028%=      5-min Rain = 0
KSM2 141842Z 04012KT 33/12 A3019 RMK A01 T03280119  RH  028%=      5-min Rain = 0
KSM2 141843Z 05008KT 33/12 A3019 RMK A01 T03280122  RH  029%=      5-min Rain = 0
KSM2 141844Z 05010G15KT 33/12 A3019 RMK A01 T03270121  RH  029%=      5-min Rain = 0
KSM2 141845Z 06014KT 33/13 A3019 RMK A01 T03260125  RH  029%=      5-min Rain = 0
KSM2 141846Z 06013KT 32/12 A3019 RMK A01 T03240124  RH  029%=      5-min Rain = 0
KSM2 141847Z 06012KT 32/13 A3019 RMK A01 T03230125  RH  030%=      5-min Rain = 0
KSM2 141848Z 04011KT 33/13 A3019 RMK A01 T03260125  RH  029%=      5-min Rain = 0
KSM2 141849Z 04011KT 33/12 A3019 RMK A01 T03320120  RH  028%=      5-min Rain = 0
KSM2 141850Z 03011KT 34/12 A3019 RMK A01 T03350118  RH  027%=      5-min Rain = 0
KSM2 141851Z 05013G19KT 34/12 A3019 RMK A01 T03390121  RH  027%=      5-min Rain = 0
KSM2 141852Z 03014KT 34/12 A3019 RMK A01 T03410122  RH  027%=      5-min Rain = 0
KSM2 141853Z 05009KT 34/12 A3019 RMK A01 T03370119  RH  027%=      5-min Rain = 0
KSM2 141854Z 06009KT 33/12 A3019 RMK A01 T03330121  RH  028%=      5-min Rain = 0
KSM2 141855Z 06011KT 33/12 A3019 RMK A01 T03300122  RH  028%=      5-min Rain = 0
KSM2 141856Z 07008KT 33/12 A3019 RMK A01 T03290123  RH  029%=      5-min Rain = 0
KSM2 141857Z 05009KT 33/13 A3019 RMK A01 T03310128  RH  029%=      5-min Rain = 0
KSM2 141858Z 05011KT 33/13 A3019 RMK A01 T03340126  RH  028%=      5-min Rain = 0
KSM2 141859Z 03013KT 33/12 A3019 RMK A01 T03330115  RH  026%=      5-min Rain = 0
KSM2 141900Z 04012G17KT 34/12 A3019 RMK A01 T03360118  RH  027%=      5-min Rain = 0
KSM2 141901Z 05015G20KT 34/12 A3019 RMK A01 T03390119  RH  026%=      5-min Rain = 0
KSM2 141902Z 05010KT 33/12 A3019 RMK A01 T03340120  RH  027%=      5-min Rain = 0
KSM2 141903Z 06009KT 33/12 A3019 RMK A01 T03310120  RH  028%=      5-min Rain = 0
KSM2 141904Z 06009KT 33/12 A3019 RMK A01 T03320119  RH  027%=      5-min Rain = 0
KSM2 141905Z 08010KT 33/12 A3019 RMK A01 T03320121  RH  028%=      5-min Rain = 0
KSM2 141906Z 08012KT 34/12 A3019 RMK A01 T03360121  RH  027%=      5-min Rain = 0
KSM2 141907Z 06008KT 34/12 A3019 RMK A01 T03370119  RH  027%=      5-min Rain = 0
KSM2 141908Z 06011KT 34/12 A3019 RMK A01 T03360116  RH  026%=      5-min Rain = 0
KSM2 141909Z 05012KT 33/12 A3019 RMK A01 T03340118  RH  027%=      5-min Rain = 0
KSM2 141910Z 04012KT 33/12 A3019 RMK A01 T03340116  RH  027%=      5-min Rain = 0
KSM2 141911Z 02012KT 34/12 A3019 RMK A01 T03360116  RH  026%=      5-min Rain = 0
KSM2 141912Z 03015KT 34/11 A3019 RMK A01 T03390111  RH  025%=      5-min Rain = 0
KSM2 141913Z 02008G16KT 34/11 A3019 RMK A01 T03360108  RH  025%=      5-min Rain = 0
KSM2 141914Z 04010KT 33/11 A3019 RMK A01 T03330112  RH  026%=      5-min Rain = 0
KSM2 141915Z 06006KT 34/12 A3019 RMK A01 T03360117  RH  026%=      5-min Rain = 0
KSM2 141916Z 05008G15KT 34/12 A3019 RMK A01 T03350121  RH  027%=      5-min Rain = 0
KSM2 141917Z 04013KT 34/12 A3019 RMK A01 T03370115  RH  026%=      5-min Rain = 0
KSM2 141918Z 04011KT 34/12 A3019 RMK A01 T03400115  RH  026%=      5-min Rain = 0
KSM2 141919Z 02011KT 34/11 A3019 RMK A01 T03420113  RH  025%=      5-min Rain = 0
KSM2 141920Z 02009KT 34/11 A3019 RMK A01 T03360111  RH  025%=      5-min Rain = 0
KSM2 141921Z 05009KT 34/11 A3019 RMK A01 T03350112  RH  026%=      5-min Rain = 0
KSM2 141922Z 05009KT 34/12 A3019 RMK A01 T03370115  RH  026%=      5-min Rain = 0
KSM2 141923Z 05008KT 34/11 A3019 RMK A01 T03400113  RH  025%=      5-min Rain = 0
KSM2 141924Z 06006KT 34/12 A3019 RMK A01 T03370115  RH  026%=      5-min Rain = 0
KSM2 141925Z 06008G13KT 34/12 A3019 RMK A01 T03360117  RH  026%=      5-min Rain = 0
KSM2 141926Z 06011KT 34/12 A3019 RMK A01 T03380118  RH  026%=      5-min Rain = 0
KSM2 141927Z 05008KT 33/12 A3019 RMK A01 T03340118  RH  027%=      5-min Rain = 0
KSM2 141928Z 04007G13KT 33/12 A3019 RMK A01 T03320119  RH  027%=      5-min Rain = 0
KSM2 141929Z 03011KT 33/12 A3019 RMK A01 T03320118  RH  027%=      5-min Rain = 0
KSM2 141930Z 01009KT 34/12 A3019 RMK A01 T03360118  RH  027%=      5-min Rain = 0
KSM2 141931Z 04011KT 34/12 A3019 RMK A01 T03380120  RH  027%=      5-min Rain = 0
KSM2 141932Z 06013G18KT 34/12 A3019 RMK A01 T03420124  RH  027%=      5-min Rain = 0
KSM2 141933Z 07010KT 34/12 A3019 RMK A01 T03350120  RH  027%=      5-min Rain = 0
KSM2 141934Z 06008KT 33/12 A3019 RMK A01 T03310120  RH  028%=      5-min Rain = 0
KSM2 141935Z 06009KT 33/12 A3019 RMK A01 T03330123  RH  028%=      5-min Rain = 0
KSM2 141936Z 08010KT 34/12 A3019 RMK A01 T03390124  RH  027%=      5-min Rain = 0
KSM2 141937Z 07010KT 34/12 A3019 RMK A01 T03430124  RH  027%=      5-min Rain = 0
KSM2 141938Z 08011KT 34/12 A3019 RMK A01 T03440124  RH  026%=      5-min Rain = 0
KSM2 141939Z 07011KT 35/12 A3019 RMK A01 T03460123  RH  026%=      5-min Rain = 0
KSM2 141940Z 07008KT 34/12 A3019 RMK A01 T03440121  RH  026%=      5-min Rain = 0
KSM2 141941Z 07008KT 34/12 A3018 RMK A01 T03420122  RH  026%=      5-min Rain = 0
KSM2 141942Z 07008KT 34/12 A3018 RMK A01 T03420124  RH  027%=      5-min Rain = 0
KSM2 141943Z 07011G16KT 34/13 A3018 RMK A01 T03420125  RH  027%=      5-min Rain = 0
KSM2 141944Z 06009KT 34/12 A3018 RMK A01 T03420122  RH  026%=      5-min Rain = 0
KSM2 141945Z 07008KT 34/12 A3018 RMK A01 T03390122  RH  027%=      5-min Rain = 0
KSM2 141946Z 04009KT 34/12 A3018 RMK A01 T03370119  RH  027%=      5-min Rain = 0
KSM2 141947Z 02009KT 34/12 A3018 RMK A01 T03410118  RH  026%=      5-min Rain = 0
KSM2 141948Z 02009KT 35/12 A3018 RMK A01 T03450115  RH  025%=      5-min Rain = 0
KSM2 141949Z 03006KT 34/11 A3018 RMK A01 T03390114  RH  025%=      5-min Rain = 0
KSM2 141950Z 03010KT 34/12 A3018 RMK A01 T03390117  RH  026%=      5-min Rain = 0
KSM2 141951Z 03009KT 34/12 A3018 RMK A01 T03430119  RH  026%=      5-min Rain = 0
KSM2 141952Z 03014KT 34/12 A3018 RMK A01 T03410120  RH  026%=      5-min Rain = 0
KSM2 141953Z 03014KT 34/12 A3018 RMK A01 T03430119  RH  026%=      5-min Rain = 0
KSM2 141954Z 03013KT 34/12 A3018 RMK A01 T03440120  RH  026%=      5-min Rain = 0
KSM2 141955Z 02011KT 35/12 A3018 RMK A01 T03470121  RH  025%=      5-min Rain = 0
KSM2 141956Z 04010KT 35/12 A3018 RMK A01 T03470120  RH  025%=      5-min Rain = 0
KSM2 141957Z 05012KT 34/12 A3018 RMK A01 T03430118  RH  026%=      5-min Rain = 0
KSM2 141958Z 04012KT 34/12 A3018 RMK A01 T03400119  RH  026%=      5-min Rain = 0
KSM2 141959Z 04011KT 34/12 A3018 RMK A01 T03400118  RH  026%=      5-min Rain = 0
KSM2 142000Z 04009KT 34/12 A3018 RMK A01 T03390117  RH  026%=      5-min Rain = 0
KSM2 142001Z 04012KT 34/12 A3017 RMK A01 T03380116  RH  026%=      5-min Rain = 0
KSM2 142002Z 03008KT 34/11 A3017 RMK A01 T03370114  RH  026%=      5-min Rain = 0
KSM2 142003Z 05008KT 34/11 A3017 RMK A01 T03390113  RH  025%=      5-min Rain = 0
KSM2 142004Z 05012KT 34/12 A3017 RMK A01 T03370121  RH  027%=      5-min Rain = 0
KSM2 142005Z 04012KT 34/12 A3017 RMK A01 T03350123  RH  028%=      5-min Rain = 0
KSM2 142006Z 05009G14KT 34/12 A3017 RMK A01 T03370123  RH  027%=      5-min Rain = 0
KSM2 142007Z 04009KT 34/12 A3017 RMK A01 T03400123  RH  027%=      5-min Rain = 0
KSM2 142008Z 04007KT 34/12 A3017 RMK A01 T03400118  RH  026%=      5-min Rain = 0
KSM2 142009Z 09007KT 33/12 A3017 RMK A01 T03340120  RH  027%=      5-min Rain = 0
KSM2 142010Z 07006KT 33/12 A3017 RMK A01 T03330120  RH  027%=      5-min Rain = 0
KSM2 142011Z 07010KT 33/12 A3017 RMK A01 T03320123  RH  028%=      5-min Rain = 0
KSM2 142012Z 05009KT 33/12 A3017 RMK A01 T03340122  RH  028%=      5-min Rain = 0
KSM2 142013Z 04007KT 33/12 A3017 RMK A01 T03340118  RH  027%=      5-min Rain = 0
KSM2 142014Z 03006KT 33/12 A3017 RMK A01 T03310119  RH  027%=      5-min Rain = 0
KSM2 142015Z 04008G13KT 33/12 A3016 RMK A01 T03290120  RH  028%=      5-min Rain = 0
KSM2 142016Z 04011KT 33/13 A3016 RMK A01 T03320126  RH  029%=      5-min Rain = 0
KSM2 142017Z 06010KT 34/13 A3016 RMK A01 T03410126  RH  027%=      5-min Rain = 0
KSM2 142018Z 07008KT 34/13 A3016 RMK A01 T03430127  RH  027%=      5-min Rain = 0
KSM2 142019Z 08006KT 35/13 A3016 RMK A01 T03450127  RH  027%=      5-min Rain = 0
KSM2 142020Z 08006KT 35/13 A3016 RMK A01 T03480127  RH  026%=      5-min Rain = 0
KSM2 142021Z 10004KT 35/12 A3016 RMK A01 T03470124  RH  026%=      5-min Rain = 0
KSM2 142022Z 08003KT 34/12 A3016 RMK A01 T03440124  RH  026%=      5-min Rain = 0
KSM2 142023Z 09006KT 34/12 A3016 RMK A01 T03430124  RH  027%=      5-min Rain = 0
KSM2 142024Z 07008KT 34/12 A3016 RMK A01 T03440120  RH  026%=      5-min Rain = 0
KSM2 142025Z 05009KT 34/12 A3016 RMK A01 T03440120  RH  026%=      5-min Rain = 0
KSM2 142026Z 04009KT 34/12 A3016 RMK A01 T03400119  RH  026%=      5-min Rain = 0
KSM2 142027Z 05009KT 34/12 A3016 RMK A01 T03400118  RH  026%=      5-min Rain = 0
KSM2 142028Z 06007KT 34/12 A3016 RMK A01 T03410117  RH  026%=      5-min Rain = 0
KSM2 142029Z 06006KT 34/12 A3016 RMK A01 T03390117  RH  026%=      5-min Rain = 0
KSM2 142030Z 04008KT 34/12 A3016 RMK A01 T03380118  RH  026%=      5-min Rain = 0
KSM2 142031Z 04008KT 34/12 A3015 RMK A01 T03410120  RH  026%=      5-min Rain = 0
KSM2 142032Z 05008KT 35/12 A3015 RMK A01 T03470119  RH  025%=      5-min Rain = 0
KSM2 142033Z 07007KT 35/12 A3015 RMK A01 T03460118  RH  025%=      5-min Rain = 0
KSM2 142034Z 06008KT 35/12 A3015 RMK A01 T03450117  RH  025%=      5-min Rain = 0
KSM2 142035Z 04005KT 34/11 A3015 RMK A01 T03400114  RH  025%=      5-min Rain = 0
KSM2 142036Z 04006KT 34/12 A3015 RMK A01 T03360115  RH  026%=      5-min Rain = 0
KSM2 142037Z 04006G11KT 33/12 A3015 RMK A01 T03340119  RH  027%=      5-min Rain = 0
KSM2 142038Z 05010KT 34/12 A3015 RMK A01 T03390122  RH  027%=      5-min Rain = 0
KSM2 142039Z 05006KT 34/12 A3015 RMK A01 T03420119  RH  026%=      5-min Rain = 0
KSM2 142040Z 06004KT 34/12 A3015 RMK A01 T03420120  RH  026%=      5-min Rain = 0
KSM2 142041Z 06006KT 34/12 A3015 RMK A01 T03410119  RH  026%=      5-min Rain = 0
KSM2 142042Z 09008KT 34/12 A3015 RMK A01 T03400121  RH  027%=      5-min Rain = 0
KSM2 142043Z 07007KT 34/12 A3015 RMK A01 T03440122  RH  026%=      5-min Rain = 0
KSM2 142044Z 07006KT 35/12 A3015 RMK A01 T03480119  RH  025%=      5-min Rain = 0
KSM2 142045Z 06005KT 35/12 A3015 RMK A01 T03460118  RH  025%=      5-min Rain = 0
KSM2 142046Z 03007KT 34/12 A3014 RMK A01 T03420116  RH  025%=      5-min Rain = 0
KSM2 142047Z 03008KT 34/11 A3014 RMK A01 T03430114  RH  025%=      5-min Rain = 0
KSM2 142048Z 03006KT 34/11 A3014 RMK A01 T03440114  RH  025%=      5-min Rain = 0
KSM2 142049Z 04005KT 34/11 A3014 RMK A01 T03410114  RH  025%=      5-min Rain = 0
KSM2 142050Z 04003KT 34/11 A3014 RMK A01 T03380113  RH  025%=      5-min Rain = 0
KSM2 142051Z 06005KT 34/12 A3014 RMK A01 T03350117  RH  026%=      5-min Rain = 0
KSM2 142052Z 08007KT 34/12 A3014 RMK A01 T03360116  RH  026%=      5-min Rain = 0
KSM2 142053Z 06009KT 34/12 A3014 RMK A01 T03390118  RH  026%=      5-min Rain = 0
KSM2 142054Z 07007KT 34/12 A3014 RMK A01 T03410118  RH  026%=      5-min Rain = 0
KSM2 142055Z 07008KT 34/12 A3014 RMK A01 T03420116  RH  025%=      5-min Rain = 0
KSM2 142056Z 06007KT 34/12 A3014 RMK A01 T03390115  RH  026%=      5-min Rain = 0
KSM2 142057Z 07006KT 34/12 A3014 RMK A01 T03390115  RH  026%=      5-min Rain = 0
KSM2 142058Z 08006KT 34/12 A3014 RMK A01 T03400115  RH  026%=      5-min Rain = 0
KSM2 142059Z 07005KT 34/12 A3014 RMK A01 T03410115  RH  025%=      5-min Rain = 0
KSM2 142100Z 08004KT 34/12 A3014 RMK A01 T03400116  RH  026%=      5-min Rain = 0
KSM2 142101Z 07005KT 34/12 A3014 RMK A01 T03400115  RH  025%=      5-min Rain = 0
KSM2 142102Z 10004KT 34/11 A3014 RMK A01 T03400113  RH  025%=      5-min Rain = 0
KSM2 142103Z 08002KT 34/11 A3014 RMK A01 T03400109  RH  024%=      5-min Rain = 0
KSM2 142104Z 08002KT 34/11 A3013 RMK A01 T03400108  RH  024%=      5-min Rain = 0
KSM2 142105Z 08001KT 34/11 A3013 RMK A01 T03410109  RH  024%=      5-min Rain = 0
KSM2 142106Z 02002KT 34/11 A3013 RMK A01 T03420107  RH  024%=      5-min Rain = 0
KSM2 142107Z 03002KT 34/11 A3013 RMK A01 T03410107  RH  024%=      5-min Rain = 0
KSM2 142108Z 03006KT 34/11 A3013 RMK A01 T03400114  RH  025%=      5-min Rain = 0
KSM2 142109Z 03007KT 34/12 A3013 RMK A01 T03430116  RH  025%=      5-min Rain = 0
KSM2 142110Z 02008KT 34/11 A3013 RMK A01 T03420114  RH  025%=      5-min Rain = 0
KSM2 142111Z 04008KT 34/11 A3013 RMK A01 T03380114  RH  026%=      5-min Rain = 0
KSM2 142112Z 04005KT 34/11 A3013 RMK A01 T03380114  RH  026%=      5-min Rain = 0
KSM2 142113Z 04004KT 34/11 A3013 RMK A01 T03370114  RH  026%=      5-min Rain = 0
KSM2 142114Z 03008KT 34/11 A3013 RMK A01 T03370114  RH  026%=      5-min Rain = 0
KSM2 142115Z 02010KT 34/11 A3013 RMK A01 T03360114  RH  026%=      5-min Rain = 0
KSM2 142116Z 02007KT 34/11 A3013 RMK A01 T03380114  RH  026%=      5-min Rain = 0
KSM2 142117Z 02007KT 34/11 A3013 RMK A01 T03400114  RH  025%=      5-min Rain = 0
KSM2 142118Z 02004KT 34/11 A3013 RMK A01 T03370112  RH  025%=      5-min Rain = 0
KSM2 142119Z 31002KT 33/11 A3013 RMK A01 T03340112  RH  026%=      5-min Rain = 0
KSM2 142120Z 25001KT 33/11 A3013 RMK A01 T03330112  RH  026%=      5-min Rain = 0
KSM2 142121Z 26002KT 33/11 A3013 RMK A01 T03320113  RH  026%=      5-min Rain = 0
KSM2 142122Z 24003KT 33/11 A3012 RMK A01 T03340113  RH  026%=      5-min Rain = 0
KSM2 142123Z 23004KT 34/11 A3012 RMK A01 T03350114  RH  026%=      5-min Rain = 0
KSM2 142124Z 23003KT 34/12 A3012 RMK A01 T03350118  RH  027%=      5-min Rain = 0
KSM2 142125Z 20003KT 34/11 A3012 RMK A01 T03380112  RH  025%=      5-min Rain = 0
KSM2 142126Z 12002KT 34/11 A3012 RMK A01 T03360111  RH  025%=      5-min Rain = 0
KSM2 142127Z 11001KT 34/12 A3012 RMK A01 T03360118  RH  027%=      5-min Rain = 0
KSM2 142128Z 08002KT 34/12 A3012 RMK A01 T03390119  RH  026%=      5-min Rain = 0
KSM2 142129Z 12004KT 34/12 A3012 RMK A01 T03430117  RH  025%=      5-min Rain = 0
KSM2 142130Z 09004KT 35/12 A3012 RMK A01 T03460115  RH  025%=      5-min Rain = 0
KSM2 142131Z 07004KT 35/11 A3012 RMK A01 T03470113  RH  024%=      5-min Rain = 0
KSM2 142132Z 06004KT 35/11 A3012 RMK A01 T03470112  RH  024%=      5-min Rain = 0
KSM2 142133Z 06004KT 35/11 A3012 RMK A01 T03450112  RH  024%=      5-min Rain = 0
KSM2 142134Z 04007KT 35/12 A3012 RMK A01 T03450117  RH  025%=      5-min Rain = 0
KSM2 142135Z 05008KT 35/12 A3012 RMK A01 T03450120  RH  026%=      5-min Rain = 0
KSM2 142136Z 05007KT 35/12 A3012 RMK A01 T03460119  RH  025%=      5-min Rain = 0
KSM2 142137Z 02007KT 35/12 A3012 RMK A01 T03460121  RH  026%=      5-min Rain = 0
KSM2 142138Z 36009KT 34/12 A3012 RMK A01 T03440120  RH  026%=      5-min Rain = 0
KSM2 142139Z 35008KT 34/12 A3012 RMK A01 T03390117  RH  026%=      5-min Rain = 0
KSM2 142140Z 03009KT 34/12 A3012 RMK A01 T03350119  RH  027%=      5-min Rain = 0
KSM2 142141Z 05008KT 34/12 A3012 RMK A01 T03360119  RH  027%=      5-min Rain = 0
KSM2 142142Z 05005KT 34/12 A3012 RMK A01 T03390118  RH  026%=      5-min Rain = 0
KSM2 142143Z 07003KT 34/12 A3012 RMK A01 T03390118  RH  026%=      5-min Rain = 0
KSM2 142144Z 08005G10KT 34/12 A3012 RMK A01 T03410121  RH  026%=      5-min Rain = 0
KSM2 142145Z 07008KT 35/12 A3012 RMK A01 T03460121  RH  026%=      5-min Rain = 0
KSM2 142146Z 06008KT 35/12 A3012 RMK A01 T03470120  RH  025%=      5-min Rain = 0
KSM2 142147Z 06006KT 34/12 A3012 RMK A01 T03440119  RH  025%=      5-min Rain = 0
KSM2 142148Z 08007KT 35/12 A3012 RMK A01 T03450120  RH  026%=      5-min Rain = 0
KSM2 142149Z 09007KT 35/12 A3012 RMK A01 T03460118  RH  025%=      5-min Rain = 0
KSM2 142150Z 08008KT 35/12 A3012 RMK A01 T03460122  RH  026%=      5-min Rain = 0
KSM2 142151Z 08007KT 35/12 A3012 RMK A01 T03500120  RH  025%=      5-min Rain = 0
KSM2 142152Z 09007KT 35/12 A3012 RMK A01 T03510119  RH  025%=      5-min Rain = 0
KSM2 142153Z 06005KT 35/12 A3012 RMK A01 T03490118  RH  025%=      5-min Rain = 0
KSM2 142154Z 02005KT 35/12 A3012 RMK A01 T03470116  RH  025%=      5-min Rain = 0
KSM2 142155Z 35003KT 34/12 A3012 RMK A01 T03430115  RH  025%=      5-min Rain = 0
KSM2 142156Z 02002KT 34/11 A3012 RMK A01 T03390114  RH  025%=      5-min Rain = 0
KSM2 142157Z 36002KT 34/11 A3012 RMK A01 T03360113  RH  026%=      5-min Rain = 0
KSM2 142158Z 00003KT 34/11 A3011 RMK A01 T03350112  RH  026%=      5-min Rain = 0
KSM2 142159Z 30001KT 33/11 A3011 RMK A01 T03340114  RH  026%=      5-min Rain = 0
KSM2 142200Z 26002KT 33/11 A3011 RMK A01 T03330113  RH  026%=      5-min Rain = 0
KSM2 142201Z 26003KT 33/11 A3011 RMK A01 T03330113  RH  026%=      5-min Rain = 0
KSM2 142202Z 26002KT 33/11 A3011 RMK A01 T03330113  RH  026%=      5-min Rain = 0
KSM2 142203Z 25002KT 33/12 A3011 RMK A01 T03330115  RH  026%=      5-min Rain = 0
KSM2 142204Z 01001KT 34/12 A3011 RMK A01 T03350115  RH  026%=      5-min Rain = 0
KSM2 142205Z 03003KT 34/12 A3011 RMK A01 T03380117  RH  026%=      5-min Rain = 0
KSM2 142206Z 07005KT 34/12 A3011 RMK A01 T03430117  RH  025%=      5-min Rain = 0
KSM2 142207Z 02006KT 34/11 A3011 RMK A01 T03430113  RH  025%=      5-min Rain = 0
KSM2 142208Z 02006KT 34/11 A3011 RMK A01 T03420112  RH  025%=      5-min Rain = 0
KSM2 142209Z 02005KT 34/11 A3011 RMK A01 T03410111  RH  025%=      5-min Rain = 0
KSM2 142210Z 02004KT 34/11 A3011 RMK A01 T03410109  RH  024%=      5-min Rain = 0
KSM2 142211Z 04004KT 34/11 A3011 RMK A01 T03400110  RH  025%=      5-min Rain = 0
KSM2 142212Z 06004KT 34/11 A3011 RMK A01 T03410111  RH  025%=      5-min Rain = 0
KSM2 142213Z 02003KT 34/11 A3011 RMK A01 T03410111  RH  025%=      5-min Rain = 0
KSM2 142214Z 04001KT 34/11 A3011 RMK A01 T03410111  RH  025%=      5-min Rain = 0
KSM2 142215Z 05004KT 34/11 A3011 RMK A01 T03420111  RH  025%=      5-min Rain = 0
KSM2 142216Z 06008KT 34/11 A3011 RMK A01 T03430112  RH  025%=      5-min Rain = 0
KSM2 142217Z 07008KT 35/12 A3011 RMK A01 T03450115  RH  025%=      5-min Rain = 0
KSM2 142218Z 04005KT 35/11 A3011 RMK A01 T03450114  RH  025%=      5-min Rain = 0
KSM2 142219Z 01003KT 34/11 A3011 RMK A01 T03420113  RH  025%=      5-min Rain = 0
KSM2 142220Z 05004KT 34/11 A3011 RMK A01 T03390114  RH  025%=      5-min Rain = 0
KSM2 142221Z 03002KT 34/11 A3011 RMK A01 T03370112  RH  025%=      5-min Rain = 0
KSM2 142222Z 28001KT 34/11 A3011 RMK A01 T03360113  RH  026%=      5-min Rain = 0
KSM2 142223Z 25003KT 34/11 A3011 RMK A01 T03360112  RH  025%=      5-min Rain = 0
KSM2 142224Z 22002KT 34/11 A3011 RMK A01 T03370112  RH  025%=      5-min Rain = 0
KSM2 142225Z 20001KT 34/11 A3011 RMK A01 T03370113  RH  026%=      5-min Rain = 0
KSM2 142226Z 06004KT 34/12 A3011 RMK A01 T03380115  RH  026%=      5-min Rain = 0
KSM2 142227Z 05007KT 34/12 A3011 RMK A01 T03410117  RH  026%=      5-min Rain = 0
KSM2 142228Z 04006KT 34/12 A3011 RMK A01 T03420116  RH  025%=      5-min Rain = 0
KSM2 142229Z 04006KT 34/12 A3011 RMK A01 T03400116  RH  026%=      5-min Rain = 0
KSM2 142230Z 04005KT 34/12 A3011 RMK A01 T03410117  RH  026%=      5-min Rain = 0
KSM2 142231Z 08003KT 34/12 A3011 RMK A01 T03430116  RH  025%=      5-min Rain = 0
KSM2 142232Z 13001KT 34/12 A3011 RMK A01 T03410115  RH  025%=      5-min Rain = 0
KSM2 142233Z 16001KT 34/12 A301 RMK A01 T03390116  RH  026%=      5-min Rain = 0
KSM2 142234Z 24001KT 34/12 A301 RMK A01 T03410116  RH  026%=      5-min Rain = 0
KSM2 142235Z 22002KT 34/11 A301 RMK A01 T03400114  RH  025%=      5-min Rain = 0
KSM2 142236Z 06004KT 34/12 A301 RMK A01 T03390117  RH  026%=      5-min Rain = 0
KSM2 142237Z 06004KT 34/12 A301 RMK A01 T03420117  RH  025%=      5-min Rain = 0
KSM2 142238Z 07005KT 35/12 A301 RMK A01 T03450118  RH  025%=      5-min Rain = 0
KSM2 142239Z 10006KT 35/12 A301 RMK A01 T03480120  RH  025%=      5-min Rain = 0
KSM2 142240Z 12006KT 35/12 A301 RMK A01 T03470116  RH  025%=      5-min Rain = 0
KSM2 142241Z 11006KT 34/12 A301 RMK A01 T03440118  RH  025%=      5-min Rain = 0
KSM2 142242Z 09007KT 35/12 A301 RMK A01 T03450119  RH  025%=      5-min Rain = 0
KSM2 142243Z 07004KT 35/12 A301 RMK A01 T03470119  RH  025%=      5-min Rain = 0
KSM2 142244Z 09002KT 35/12 A301 RMK A01 T03500118  RH  025%=      5-min Rain = 0
KSM2 142245Z 10004KT 35/12 A301 RMK A01 T03500116  RH  024%=      5-min Rain = 0
KSM2 142246Z 12004KT 35/11 A301 RMK A01 T03450114  RH  025%=      5-min Rain = 0
KSM2 142247Z 13004KT 34/11 A301 RMK A01 T03430114  RH  025%=      5-min Rain = 0
KSM2 142248Z 09004KT 34/12 A301 RMK A01 T03420115  RH  025%=      5-min Rain = 0
KSM2 142249Z 09003KT 34/12 A301 RMK A01 T03420116  RH  025%=      5-min Rain = 0
KSM2 142250Z 08001KT 34/12 A301 RMK A01 T03410116  RH  025%=      5-min Rain = 0
KSM2 142251Z 03001KT 34/12 A301 RMK A01 T03400117  RH  026%=      5-min Rain = 0
KSM2 142252Z 03001KT 34/12 A301 RMK A01 T03400115  RH  025%=      5-min Rain = 0
KSM2 142253Z 09002KT 34/11 A301 RMK A01 T03410114  RH  025%=      5-min Rain = 0
KSM2 142254Z 11000KT 34/11 A301 RMK A01 T03410113  RH  025%=      5-min Rain = 0
KSM2 142255Z 15003KT 34/12 A301 RMK A01 T03410115  RH  025%=      5-min Rain = 0
KSM2 142256Z 17003KT 34/12 A301 RMK A01 T03420119  RH  026%=      5-min Rain = 0
KSM2 142257Z 10003KT 34/12 A301 RMK A01 T03420124  RH  027%=      5-min Rain = 0
KSM2 142258Z 07003KT 34/12 A301 RMK A01 T03440117  RH  025%=      5-min Rain = 0
KSM2 142259Z 05005KT 35/12 A301 RMK A01 T03450116  RH  025%=      5-min Rain = 0
KSM2 142300Z 06007KT 35/12 A301 RMK A01 T03450117  RH  025%=      5-min Rain = 0
KSM2 142301Z 04007KT 35/12 A301 RMK A01 T03460116  RH  025%=      5-min Rain = 0
KSM2 142302Z 03007KT 35/12 A301 RMK A01 T03460116  RH  025%=      5-min Rain = 0
KSM2 142303Z 02009KT 35/11 A301 RMK A01 T03450114  RH  025%=      5-min Rain = 0
KSM2 142304Z 00007KT 34/11 A301 RMK A01 T03440114  RH  025%=      5-min Rain = 0
KSM2 142305Z 02007KT 34/11 A301 RMK A01 T03430113  RH  025%=      5-min Rain = 0
KSM2 142306Z 04007KT 34/11 A301 RMK A01 T03430113  RH  025%=      5-min Rain = 0
KSM2 142307Z 04009KT 34/11 A301 RMK A01 T03440112  RH  025%=      5-min Rain = 0
KSM2 142308Z 05008KT 35/11 A301 RMK A01 T03450112  RH  024%=      5-min Rain = 0
KSM2 142309Z 03004KT 34/11 A301 RMK A01 T03420111  RH  024%=      5-min Rain = 0
KSM2 142310Z 03004KT 34/11 A301 RMK A01 T03400111  RH  025%=      5-min Rain = 0
KSM2 142311Z 04008KT 34/11 A301 RMK A01 T03410113  RH  025%=      5-min Rain = 0
KSM2 142312Z 05007KT 34/11 A3011 RMK A01 T03420112  RH  025%=      5-min Rain = 0
KSM2 142313Z 05006KT 34/11 A3011 RMK A01 T03430112  RH  025%=      5-min Rain = 0
KSM2 142314Z 05004KT 34/11 A3011 RMK A01 T03430110  RH  024%=      5-min Rain = 0
KSM2 142315Z 06003KT 34/11 A3011 RMK A01 T03410111  RH  025%=      5-min Rain = 0
KSM2 142316Z 07004KT 34/11 A3011 RMK A01 T03420112  RH  025%=      5-min Rain = 0
KSM2 142317Z 07004KT 34/11 A301 RMK A01 T03430112  RH  025%=      5-min Rain = 0
KSM2 142318Z 09003KT 34/11 A301 RMK A01 T03410112  RH  025%=      5-min Rain = 0
KSM2 142319Z 05002KT 34/11 A301 RMK A01 T03410112  RH  025%=      5-min Rain = 0
KSM2 142320Z 00002KT 34/11 A301 RMK A01 T03430110  RH  024%=      5-min Rain = 0
KSM2 142321Z 32001KT 34/11 A301 RMK A01 T03430111  RH  024%=      5-min Rain = 0
KSM2 142322Z 31001KT 34/11 A301 RMK A01 T03420109  RH  024%=      5-min Rain = 0
KSM2 142323Z 36001KT 34/11 A301 RMK A01 T03420111  RH  024%=      5-min Rain = 0
KSM2 142324Z 03004KT 34/11 A301 RMK A01 T03430109  RH  024%=      5-min Rain = 0
KSM2 142325Z 04005KT 34/11 A301 RMK A01 T03430110  RH  024%=      5-min Rain = 0
KSM2 142326Z 06005KT 34/11 A301 RMK A01 T03430112  RH  025%=      5-min Rain = 0
KSM2 142327Z 05005KT 35/11 A301 RMK A01 T03460112  RH  024%=      5-min Rain = 0
KSM2 142328Z 03007KT 35/11 A301 RMK A01 T03470110  RH  024%=      5-min Rain = 0
KSM2 142329Z 03007KT 35/11 A301 RMK A01 T03460108  RH  023%=      5-min Rain = 0
KSM2 142330Z 02008KT 35/11 A301 RMK A01 T03460108  RH  023%=      5-min Rain = 0
KSM2 142331Z 01007KT 35/11 A301 RMK A01 T03450106  RH  023%=      5-min Rain = 0
KSM2 142332Z 01008KT 34/11 A301 RMK A01 T03420106  RH  024%=      5-min Rain = 0
KSM2 142333Z 01008KT 34/11 A301 RMK A01 T03400106  RH  024%=      5-min Rain = 0
KSM2 142334Z 02005KT 34/11 A301 RMK A01 T03390106  RH  024%=      5-min Rain = 0
KSM2 142335Z 01003KT 34/11 A301 RMK A01 T03370106  RH  024%=      5-min Rain = 0
KSM2 142336Z 01004KT 34/11 A301 RMK A01 T03370108  RH  025%=      5-min Rain = 0
KSM2 142337Z 05003KT 34/11 A301 RMK A01 T03390109  RH  025%=      5-min Rain = 0
KSM2 142338Z 06004KT 34/11 A301 RMK A01 T03400109  RH  025%=      5-min Rain = 0
KSM2 142339Z 04005KT 34/11 A301 RMK A01 T03410111  RH  025%=      5-min Rain = 0
KSM2 142340Z 04008KT 34/11 A301 RMK A01 T03430111  RH  024%=      5-min Rain = 0
KSM2 142341Z 05007KT 34/11 A301 RMK A01 T03440111  RH  024%=      5-min Rain = 0
KSM2 142342Z 06009KT 34/11 A301 RMK A01 T03440112  RH  024%=      5-min Rain = 0
KSM2 142343Z 05008KT 34/11 A301 RMK A01 T03420111  RH  024%=      5-min Rain = 0
KSM2 142344Z 04008KT 34/11 A301 RMK A01 T03410109  RH  024%=      5-min Rain = 0
KSM2 142345Z 05007KT 34/11 A301 RMK A01 T03410110  RH  025%=      5-min Rain = 0
KSM2 142346Z 05009KT 34/11 A301 RMK A01 T03410110  RH  025%=      5-min Rain = 0
KSM2 142347Z 04010KT 34/11 A301 RMK A01 T03400109  RH  024%=      5-min Rain = 0
KSM2 142348Z 05009KT 34/11 A301 RMK A01 T03390108  RH  024%=      5-min Rain = 0
KSM2 142349Z 05007KT 34/11 A301 RMK A01 T03400109  RH  025%=      5-min Rain = 0
KSM2 142350Z 07007KT 34/11 A301 RMK A01 T03390109  RH  025%=      5-min Rain = 0
KSM2 142351Z 08006KT 34/11 A301 RMK A01 T03380110  RH  025%=      5-min Rain = 0
KSM2 142352Z 08008KT 34/11 A301 RMK A01 T03390110  RH  025%=      5-min Rain = 0
KSM2 142353Z 09007KT 34/11 A301 RMK A01 T03400109  RH  025%=      5-min Rain = 0
KSM2 142354Z 08008KT 34/11 A301 RMK A01 T03390110  RH  025%=      5-min Rain = 0
KSM2 142355Z 07007KT 34/11 A301 RMK A01 T03390110  RH  025%=      5-min Rain = 0
KSM2 142356Z 08009KT 34/11 A301 RMK A01 T03390109  RH  025%=      5-min Rain = 0
KSM2 142357Z 09007KT 34/11 A301 RMK A01 T03380109  RH  025%=      5-min Rain = 0
KSM2 142358Z 08007KT 34/11 A301 RMK A01 T03380110  RH  025%=      5-min Rain = 0
KSM2 142359Z 09004KT 34/11 A301 RMK A01 T03380109  RH  025%=      5-min Rain = 0
KSM2 150000Z 09003KT 34/11 A301 RMK A01 T03370109  RH  025%=      5-min Rain = 0
KSM2 150001Z 07005KT 34/11 A301 RMK A01 T03370110  RH  025%=      5-min Rain = 0
KSM2 150002Z 07005KT 34/11 A301 RMK A01 T03390109  RH  025%=      5-min Rain = 0
KSM2 150003Z 05003KT 34/11 A301 RMK A01 T03380107  RH  024%=      5-min Rain = 0
KSM2 150004Z 08004KT 34/11 A301 RMK A01 T03370109  RH  025%=      5-min Rain = 0
KSM2 150005Z 07004KT 34/11 A301 RMK A01 T03370108  RH  025%=      5-min Rain = 0
KSM2 150006Z 07003KT 34/11 A301 RMK A01 T03370109  RH  025%=      5-min Rain = 0
KSM2 150007Z 09001KT 34/11 A301 RMK A01 T03380107  RH  024%=      5-min Rain = 0
KSM2 150008Z 09001KT 34/11 A301 RMK A01 T03380110  RH  025%=      5-min Rain = 0
KSM2 150009Z 08004KT 34/11 A301 RMK A01 T03400111  RH  025%=      5-min Rain = 0
KSM2 150010Z 07004KT 34/11 A301 RMK A01 T03420112  RH  025%=      5-min Rain = 0
KSM2 150011Z 07003KT 34/11 A301 RMK A01 T03420109  RH  024%=      5-min Rain = 0
KSM2 150012Z 06003KT 34/11 A301 RMK A01 T03420108  RH  024%=      5-min Rain = 0
KSM2 150013Z 08002KT 34/11 A301 RMK A01 T03410109  RH  024%=      5-min Rain = 0
KSM2 150014Z 06003KT 34/11 A301 RMK A01 T03410109  RH  024%=      5-min Rain = 0
KSM2 150015Z 08003KT 34/11 A301 RMK A01 T03400109  RH  024%=      5-min Rain = 0
KSM2 150016Z 07004KT 34/11 A301 RMK A01 T03390110  RH  025%=      5-min Rain = 0
KSM2 150017Z 06007KT 34/11 A301 RMK A01 T03390109  RH  025%=      5-min Rain = 0
KSM2 150018Z 05005KT 34/11 A301 RMK A01 T03380109  RH  025%=      5-min Rain = 0
KSM2 150019Z 06009KT 34/11 A301 RMK A01 T03370109  RH  025%=      5-min Rain = 0
KSM2 150020Z 05008KT 34/11 A301 RMK A01 T03360109  RH  025%=      5-min Rain = 0
KSM2 150021Z 06007KT 34/11 A301 RMK A01 T03360110  RH  025%=      5-min Rain = 0
KSM2 150022Z 05007KT 34/11 A301 RMK A01 T03360110  RH  025%=      5-min Rain = 0
KSM2 150023Z 06007KT 34/11 A301 RMK A01 T03350108  RH  025%=      5-min Rain = 0
KSM2 150024Z 06005KT 33/11 A301 RMK A01 T03340108  RH  025%=      5-min Rain = 0
KSM2 150025Z 06007KT 33/11 A301 RMK A01 T03340109  RH  025%=      5-min Rain = 0
KSM2 150026Z 05007KT 33/11 A301 RMK A01 T03340107  RH  025%=      5-min Rain = 0
KSM2 150027Z 05007KT 33/11 A301 RMK A01 T03330108  RH  025%=      5-min Rain = 0
KSM2 150028Z 05006KT 33/11 A301 RMK A01 T03330108  RH  025%=      5-min Rain = 0
KSM2 150029Z 06006KT 33/11 A301 RMK A01 T03340109  RH  025%=      5-min Rain = 0
KSM2 150030Z 07006KT 33/11 A301 RMK A01 T03330108  RH  025%=      5-min Rain = 0
KSM2 150031Z 06007KT 33/11 A301 RMK A01 T03330109  RH  025%=      5-min Rain = 0
KSM2 150032Z 07006KT 33/11 A301 RMK A01 T03330109  RH  025%=      5-min Rain = 0
KSM2 150033Z 08006KT 33/11 A301 RMK A01 T03330108  RH  025%=      5-min Rain = 0
KSM2 150034Z 08006KT 33/11 A301 RMK A01 T03330109  RH  025%=      5-min Rain = 0
KSM2 150035Z 08006KT 33/11 A301 RMK A01 T03320108  RH  025%=      5-min Rain = 0
KSM2 150036Z 08006KT 33/11 A301 RMK A01 T03320109  RH  026%=      5-min Rain = 0
KSM2 150037Z 08007KT 33/11 A301 RMK A01 T03310109  RH  026%=      5-min Rain = 0
KSM2 150038Z 06005KT 33/11 A301 RMK A01 T03300109  RH  026%=      5-min Rain = 0
KSM2 150039Z 05006KT 33/11 A301 RMK A01 T03300110  RH  026%=      5-min Rain = 0
KSM2 150040Z 05006KT 33/11 A301 RMK A01 T03300107  RH  026%=      5-min Rain = 0
KSM2 150041Z 05005KT 33/11 A301 RMK A01 T03290106  RH  025%=      5-min Rain = 0
KSM2 150042Z 05006KT 33/11 A301 RMK A01 T03300108  RH  026%=      5-min Rain = 0
KSM2 150043Z 05006KT 33/11 A301 RMK A01 T03300109  RH  026%=      5-min Rain = 0
KSM2 150044Z 05006KT 33/11 A301 RMK A01 T03290108  RH  026%=      5-min Rain = 0
KSM2 150045Z 05005KT 33/11 A301 RMK A01 T03290108  RH  026%=      5-min Rain = 0
KSM2 150046Z 05005KT 33/11 A301 RMK A01 T03280110  RH  026%=      5-min Rain = 0
KSM2 150047Z 05005KT 33/11 A301 RMK A01 T03280110  RH  026%=      5-min Rain = 0
KSM2 150048Z 06005KT 33/11 A301 RMK A01 T03280111  RH  026%=      5-min Rain = 0
KSM2 150049Z 05005KT 33/11 A301 RMK A01 T03280109  RH  026%=      5-min Rain = 0
KSM2 150050Z 05005KT 33/11 A3011 RMK A01 T03290108  RH  026%=      5-min Rain = 0
KSM2 150051Z 05005KT 33/11 A3011 RMK A01 T03280107  RH  026%=      5-min Rain = 0
KSM2 150052Z 06005KT 33/11 A3011 RMK A01 T03280108  RH  026%=      5-min Rain = 0
KSM2 150053Z 06005KT 33/11 A3011 RMK A01 T03280107  RH  026%=      5-min Rain = 0
KSM2 150054Z 08005KT 33/11 A3011 RMK A01 T03270109  RH  026%=      5-min Rain = 0
KSM2 150055Z 06005KT 33/11 A3011 RMK A01 T03270110  RH  027%=      5-min Rain = 0
KSM2 150056Z 06006KT 33/11 A3011 RMK A01 T03260111  RH  027%=      5-min Rain = 0
KSM2 150057Z 06006KT 33/11 A3011 RMK A01 T03260111  RH  027%=      5-min Rain = 0
KSM2 150058Z 06006KT 33/11 A3011 RMK A01 T03250112  RH  027%=      5-min Rain = 0
KSM2 150059Z 06005KT 33/11 A3011 RMK A01 T03250113  RH  027%=      5-min Rain = 0
KSM2 150100Z 06006KT 32/11 A3011 RMK A01 T03240114  RH  028%=      5-min Rain = 0
KSM2 150101Z 06006KT 32/11 A3011 RMK A01 T03230114  RH  028%=      5-min Rain = 0
KSM2 150102Z 05006KT 32/11 A3011 RMK A01 T03220114  RH  028%=      5-min Rain = 0
KSM2 150103Z 06006KT 32/11 A3011 RMK A01 T03210114  RH  028%=      5-min Rain = 0
KSM2 150104Z 06007KT 32/11 A3011 RMK A01 T03200114  RH  028%=      5-min Rain = 0
KSM2 150105Z 06006KT 32/11 A3011 RMK A01 T03190114  RH  028%=      5-min Rain = 0
KSM2 150106Z 06005KT 32/12 A3011 RMK A01 T03180116  RH  029%=      5-min Rain = 0
KSM2 150107Z 06005KT 32/12 A3011 RMK A01 T03170116  RH  029%=      5-min Rain = 0
KSM2 150108Z 06004KT 32/12 A3011 RMK A01 T03160116  RH  029%=      5-min Rain = 0
KSM2 150109Z 06005KT 32/12 A3011 RMK A01 T03150116  RH  030%=      5-min Rain = 0
KSM2 150110Z 06006KT 32/12 A3011 RMK A01 T03150116  RH  030%=      5-min Rain = 0
KSM2 150111Z 05006KT 32/12 A3011 RMK A01 T03150115  RH  029%=      5-min Rain = 0
KSM2 150112Z 05006KT 32/12 A3011 RMK A01 T03150117  RH  030%=      5-min Rain = 0
KSM2 150113Z 06005KT 31/12 A3011 RMK A01 T03140117  RH  030%=      5-min Rain = 0
KSM2 150114Z 06005KT 31/12 A3011 RMK A01 T03140117  RH  030%=      5-min Rain = 0
KSM2 150115Z 06005KT 31/12 A3011 RMK A01 T03130117  RH  030%=      5-min Rain = 0
KSM2 150116Z 06005KT 31/12 A3011 RMK A01 T03130118  RH  030%=      5-min Rain = 0
KSM2 150117Z 05006KT 31/12 A3011 RMK A01 T03120117  RH  030%=      5-min Rain = 0
KSM2 150118Z 06006KT 31/12 A3012 RMK A01 T03110118  RH  031%=      5-min Rain = 0
KSM2 150119Z 05005KT 31/12 A3012 RMK A01 T03110118  RH  031%=      5-min Rain = 0
KSM2 150120Z 05005KT 31/12 A3012 RMK A01 T03100119  RH  031%=      5-min Rain = 0
KSM2 150121Z 05005KT 31/12 A3012 RMK A01 T03090119  RH  031%=      5-min Rain = 0
KSM2 150122Z 05005KT 31/12 A3012 RMK A01 T03090119  RH  031%=      5-min Rain = 0
KSM2 150123Z 05006KT 31/12 A3012 RMK A01 T03080120  RH  031%=      5-min Rain = 0
KSM2 150124Z 06006KT 31/12 A3012 RMK A01 T03080120  RH  032%=      5-min Rain = 0
KSM2 150125Z 06005KT 31/12 A3012 RMK A01 T03070120  RH  032%=      5-min Rain = 0
KSM2 150126Z 06005KT 31/12 A3012 RMK A01 T03070121  RH  032%=      5-min Rain = 0
KSM2 150127Z 06005KT 31/12 A3012 RMK A01 T03060121  RH  032%=      5-min Rain = 0
KSM2 150128Z 06005KT 30/12 A3012 RMK A01 T03040120  RH  032%=      5-min Rain = 0
KSM2 150129Z 06005KT 30/12 A3012 RMK A01 T03040121  RH  032%=      5-min Rain = 0
KSM2 150130Z 06005KT 30/12 A3012 RMK A01 T03030121  RH  033%=      5-min Rain = 0
KSM2 150131Z 06005KT 30/12 A3012 RMK A01 T03020121  RH  033%=      5-min Rain = 0
KSM2 150132Z 06005KT 30/12 A3012 RMK A01 T03010121  RH  033%=      5-min Rain = 0
KSM2 150133Z 06005KT 30/12 A3012 RMK A01 T03000121  RH  033%=      5-min Rain = 0
KSM2 150134Z 06005KT 30/12 A3012 RMK A01 T03000121  RH  033%=      5-min Rain = 0
KSM2 150135Z 06005KT 30/12 A3012 RMK A01 T02990120  RH  033%=      5-min Rain = 0
KSM2 150136Z 06005KT 30/12 A3012 RMK A01 T02980120  RH  033%=      5-min Rain = 0
KSM2 150137Z 06005KT 30/12 A3012 RMK A01 T02980120  RH  033%=      5-min Rain = 0
KSM2 150138Z 06005KT 30/12 A3012 RMK A01 T02980120  RH  033%=      5-min Rain = 0
KSM2 150139Z 06005KT 30/12 A3012 RMK A01 T02980120  RH  033%=      5-min Rain = 0
KSM2 150140Z 06004KT 30/12 A3012 RMK A01 T02980120  RH  033%=      5-min Rain = 0
KSM2 150141Z 06004KT 30/12 A3012 RMK A01 T02980120  RH  033%=      5-min Rain = 0
KSM2 150142Z 06004KT 30/12 A3012 RMK A01 T02970120  RH  034%=      5-min Rain = 0
KSM2 150143Z 06004KT 30/12 A3012 RMK A01 T02960120  RH  034%=      5-min Rain = 0
KSM2 150144Z 06004KT 30/12 A3012 RMK A01 T02960119  RH  034%=      5-min Rain = 0
KSM2 150145Z 06004KT 30/12 A3012 RMK A01 T02950119  RH  034%=      5-min Rain = 0
KSM2 150146Z 06005KT 29/12 A3012 RMK A01 T02940120  RH  034%=      5-min Rain = 0
KSM2 150147Z 07005KT 29/12 A3012 RMK A01 T02930120  RH  034%=      5-min Rain = 0
KSM2 150148Z 07005KT 29/12 A3012 RMK A01 T02930121  RH  035%=      5-min Rain = 0
KSM2 150149Z 07005KT 29/12 A3012 RMK A01 T02920121  RH  035%=      5-min Rain = 0
KSM2 150150Z 08006KT 29/12 A3012 RMK A01 T02910121  RH  035%=      5-min Rain = 0
KSM2 150151Z 07005KT 29/12 A3013 RMK A01 T02900121  RH  035%=      5-min Rain = 0
KSM2 150152Z 08005KT 29/12 A3013 RMK A01 T02880121  RH  036%=      5-min Rain = 0
KSM2 150153Z 08005KT 29/12 A3013 RMK A01 T02870121  RH  036%=      5-min Rain = 0
KSM2 150154Z 08005KT 29/12 A3013 RMK A01 T02860121  RH  036%=      5-min Rain = 0
KSM2 150155Z 07005KT 29/12 A3013 RMK A01 T02850122  RH  036%=      5-min Rain = 0
KSM2 150156Z 07005KT 28/12 A3013 RMK A01 T02840122  RH  037%=      5-min Rain = 0
KSM2 150157Z 08005KT 28/12 A3013 RMK A01 T02840122  RH  037%=      5-min Rain = 0
KSM2 150158Z 08005KT 28/12 A3013 RMK A01 T02830122  RH  037%=      5-min Rain = 0
KSM2 150159Z 08005KT 28/12 A3013 RMK A01 T02830122  RH  037%=      5-min Rain = 0
KSM2 150200Z 08005KT 28/12 A3013 RMK A01 T02820123  RH  037%=      5-min Rain = 0
KSM2 150201Z 08005KT 28/12 A3013 RMK A01 T02810123  RH  037%=      5-min Rain = 0
KSM2 150202Z 08005KT 28/12 A3013 RMK A01 T02810123  RH  038%=      5-min Rain = 0
KSM2 150203Z 08005KT 28/12 A3013 RMK A01 T02800123  RH  038%=      5-min Rain = 0
KSM2 150204Z 08005KT 28/12 A3013 RMK A01 T02790123  RH  038%=      5-min Rain = 0
KSM2 150205Z 08005KT 28/12 A3013 RMK A01 T02780123  RH  038%=      5-min Rain = 0
KSM2 150206Z 08005KT 28/12 A3014 RMK A01 T02770123  RH  038%=      5-min Rain = 0
KSM2 150207Z 08005KT 28/12 A3014 RMK A01 T02760123  RH  039%=      5-min Rain = 0
KSM2 150208Z 08005KT 28/12 A3014 RMK A01 T02750123  RH  039%=      5-min Rain = 0
KSM2 150209Z 08005KT 28/12 A3014 RMK A01 T02750123  RH  039%=      5-min Rain = 0
KSM2 150210Z 08005KT 27/12 A3014 RMK A01 T02740123  RH  039%=      5-min Rain = 0
KSM2 150211Z 08005KT 27/12 A3014 RMK A01 T02730123  RH  039%=      5-min Rain = 0
KSM2 150212Z 07005KT 27/12 A3014 RMK A01 T02730124  RH  039%=      5-min Rain = 0
KSM2 150213Z 08005KT 27/12 A3014 RMK A01 T02730123  RH  039%=      5-min Rain = 0
KSM2 150214Z 07005KT 27/12 A3014 RMK A01 T02730124  RH  039%=      5-min Rain = 0
KSM2 150215Z 07005KT 27/12 A3014 RMK A01 T02730123  RH  039%=      5-min Rain = 0
KSM2 150216Z 07004KT 27/12 A3014 RMK A01 T02740123  RH  039%=      5-min Rain = 0
KSM2 150217Z 07005KT 27/12 A3014 RMK A01 T02740123  RH  039%=      5-min Rain = 0
KSM2 150218Z 07005KT 27/12 A3014 RMK A01 T02740123  RH  039%=      5-min Rain = 0
KSM2 150219Z 07005KT 28/12 A3014 RMK A01 T02750123  RH  039%=      5-min Rain = 0
KSM2 150220Z 07004KT 28/12 A3014 RMK A01 T02750123  RH  039%=      5-min Rain = 0
KSM2 150221Z 07004KT 28/12 A3014 RMK A01 T02750123  RH  039%=      5-min Rain = 0
KSM2 150222Z 06004KT 28/12 A3014 RMK A01 T02750123  RH  039%=      5-min Rain = 0
KSM2 150223Z 07004KT 28/12 A3015 RMK A01 T02750123  RH  039%=      5-min Rain = 0
KSM2 150224Z 08004KT 28/12 A3015 RMK A01 T02750122  RH  039%=      5-min Rain = 0
KSM2 150225Z 08004KT 27/12 A3015 RMK A01 T02740122  RH  039%=      5-min Rain = 0
KSM2 150226Z 08004KT 27/12 A3015 RMK A01 T02730122  RH  039%=      5-min Rain = 0
KSM2 150227Z 08004KT 27/12 A3015 RMK A01 T02720122  RH  039%=      5-min Rain = 0
KSM2 150228Z 08004KT 27/12 A3015 RMK A01 T02720122  RH  039%=      5-min Rain = 0
KSM2 150229Z 08004KT 27/12 A3015 RMK A01 T02720122  RH  039%=      5-min Rain = 0
KSM2 150230Z 08004KT 27/12 A3015 RMK A01 T02710122  RH  039%=      5-min Rain = 0
KSM2 150231Z 08004KT 27/12 A3015 RMK A01 T02710122  RH  040%=      5-min Rain = 0
KSM2 150232Z 08004KT 27/12 A3015 RMK A01 T02700121  RH  040%=      5-min Rain = 0
KSM2 150233Z 08004KT 27/12 A3015 RMK A01 T02690122  RH  040%=      5-min Rain = 0
KSM2 150234Z 08005KT 27/12 A3015 RMK A01 T02690123  RH  040%=      5-min Rain = 0
KSM2 150235Z 08005KT 27/12 A3015 RMK A01 T02680123  RH  041%=      5-min Rain = 0
KSM2 150236Z 08005KT 27/12 A3015 RMK A01 T02680123  RH  041%=      5-min Rain = 0
KSM2 150237Z 08005KT 27/12 A3015 RMK A01 T02680123  RH  041%=      5-min Rain = 0
KSM2 150238Z 08005KT 27/12 A3015 RMK A01 T02680123  RH  041%=      5-min Rain = 0
KSM2 150239Z 08005KT 27/12 A3015 RMK A01 T02680123  RH  041%=      5-min Rain = 0
KSM2 150240Z 08005KT 27/12 A3015 RMK A01 T02680123  RH  041%=      5-min Rain = 0
KSM2 150241Z 08005KT 27/12 A3015 RMK A01 T02670123  RH  041%=      5-min Rain = 0
KSM2 150242Z 08005KT 27/12 A3015 RMK A01 T02670123  RH  041%=      5-min Rain = 0
KSM2 150243Z 08005KT 27/12 A3015 RMK A01 T02670122  RH  041%=      5-min Rain = 0
KSM2 150244Z 08004KT 27/12 A3015 RMK A01 T02670122  RH  041%=      5-min Rain = 0
KSM2 150245Z 08004KT 27/12 A3015 RMK A01 T02660122  RH  041%=      5-min Rain = 0
KSM2 150246Z 08004KT 27/12 A3015 RMK A01 T02660122  RH  041%=      5-min Rain = 0
KSM2 150247Z 08005KT 27/12 A3015 RMK A01 T02650122  RH  041%=      5-min Rain = 0
KSM2 150248Z 08005KT 27/12 A3015 RMK A01 T02650122  RH  041%=      5-min Rain = 0
KSM2 150249Z 07005KT 27/12 A3015 RMK A01 T02650122  RH  041%=      5-min Rain = 0
KSM2 150250Z 07004KT 27/12 A3015 RMK A01 T02650122  RH  041%=      5-min Rain = 0
KSM2 150251Z 07004KT 27/12 A3015 RMK A01 T02650122  RH  041%=      5-min Rain = 0
KSM2 150252Z 07004KT 27/12 A3015 RMK A01 T02650122  RH  041%=      5-min Rain = 0
KSM2 150253Z 08004KT 27/12 A3015 RMK A01 T02650122  RH  041%=      5-min Rain = 0
KSM2 150254Z 08004KT 27/12 A3015 RMK A01 T02660123  RH  041%=      5-min Rain = 0
KSM2 150255Z 08004KT 27/12 A3015 RMK A01 T02650122  RH  041%=      5-min Rain = 0
KSM2 150256Z 09004KT 26/12 A3015 RMK A01 T02640121  RH  041%=      5-min Rain = 0
KSM2 150257Z 09004KT 26/12 A3015 RMK A01 T02640120  RH  041%=      5-min Rain = 0
KSM2 150258Z 09004KT 26/12 A3015 RMK A01 T02640120  RH  041%=      5-min Rain = 0
KSM2 150259Z 09004KT 26/12 A3015 RMK A01 T02640120  RH  041%=      5-min Rain = 0
KSM2 150300Z 09004KT 26/12 A3015 RMK A01 T02640120  RH  041%=      5-min Rain = 0
KSM2 150301Z 09005KT 26/12 A3015 RMK A01 T02640119  RH  041%=      5-min Rain = 0
KSM2 150302Z 09005KT 26/12 A3015 RMK A01 T02640119  RH  040%=      5-min Rain = 0
KSM2 150303Z 09005KT 26/12 A3015 RMK A01 T02630119  RH  041%=      5-min Rain = 0
KSM2 150304Z 09006KT 26/12 A3015 RMK A01 T02630119  RH  041%=      5-min Rain = 0
KSM2 150305Z 09006KT 26/12 A3015 RMK A01 T02630119  RH  041%=      5-min Rain = 0
KSM2 150306Z 09006KT 26/12 A3015 RMK A01 T02630119  RH  041%=      5-min Rain = 0
KSM2 150307Z 10006KT 26/12 A3015 RMK A01 T02630120  RH  041%=      5-min Rain = 0
KSM2 150308Z 10006KT 26/12 A3015 RMK A01 T02640120  RH  041%=      5-min Rain = 0
KSM2 150309Z 10006KT 26/12 A3015 RMK A01 T02640121  RH  041%=      5-min Rain = 0
KSM2 150310Z 10006KT 27/12 A3016 RMK A01 T02650122  RH  041%=      5-min Rain = 0
KSM2 150311Z 10006KT 27/12 A3016 RMK A01 T02660123  RH  041%=      5-min Rain = 0
KSM2 150312Z 10006KT 27/12 A3016 RMK A01 T02670123  RH  041%=      5-min Rain = 0
KSM2 150313Z 10006KT 27/12 A3016 RMK A01 T02680124  RH  041%=      5-min Rain = 0
KSM2 150314Z 10006KT 27/12 A3016 RMK A01 T02680123  RH  041%=      5-min Rain = 0
KSM2 150315Z 10005KT 27/12 A3016 RMK A01 T02690123  RH  040%=      5-min Rain = 0
KSM2 150316Z 10005KT 27/12 A3016 RMK A01 T02690123  RH  040%=      5-min Rain = 0
KSM2 150317Z 10005KT 27/12 A3016 RMK A01 T02690124  RH  041%=      5-min Rain = 0
KSM2 150318Z 10005KT 27/12 A3016 RMK A01 T02680124  RH  041%=      5-min Rain = 0
KSM2 150319Z 10005KT 27/12 A3016 RMK A01 T02670124  RH  041%=      5-min Rain = 0
KSM2 150320Z 10005KT 27/12 A3016 RMK A01 T02670124  RH  041%=      5-min Rain = 0
KSM2 150321Z 10005KT 27/12 A3016 RMK A01 T02660124  RH  041%=      5-min Rain = 0
KSM2 150322Z 10005KT 27/12 A3016 RMK A01 T02660123  RH  041%=      5-min Rain = 0
KSM2 150323Z 10005KT 27/12 A3016 RMK A01 T02660123  RH  041%=      5-min Rain = 0
KSM2 150324Z 10005KT 27/12 A3016 RMK A01 T02650123  RH  041%=      5-min Rain = 0
KSM2 150325Z 10006KT 27/12 A3016 RMK A01 T02650123  RH  041%=      5-min Rain = 0
KSM2 150326Z 10006KT 27/12 A3016 RMK A01 T02650124  RH  041%=      5-min Rain = 0
KSM2 150327Z 10006KT 26/12 A3016 RMK A01 T02640123  RH  042%=      5-min Rain = 0
KSM2 150328Z 10006KT 26/12 A3016 RMK A01 T02640123  RH  042%=      5-min Rain = 0
KSM2 150329Z 10006KT 26/12 A3016 RMK A01 T02640124  RH  042%=      5-min Rain = 0
KSM2 150330Z 10007KT 26/13 A3016 RMK A01 T02640125  RH  042%=      5-min Rain = 0
KSM2 150331Z 11007KT 27/13 A3016 RMK A01 T02650126  RH  042%=      5-min Rain = 0
KSM2 150332Z 10007KT 27/13 A3016 RMK A01 T02680126  RH  041%=      5-min Rain = 0
KSM2 150333Z 11007KT 27/13 A3016 RMK A01 T02710127  RH  041%=      5-min Rain = 0
KSM2 150334Z 11007KT 27/13 A3016 RMK A01 T02710127  RH  041%=      5-min Rain = 0
KSM2 150335Z 11008KT 27/13 A3016 RMK A01 T02720127  RH  041%=      5-min Rain = 0
KSM2 150336Z 10008KT 27/13 A3016 RMK A01 T02730127  RH  040%=      5-min Rain = 0
KSM2 150337Z 10007KT 27/13 A3016 RMK A01 T02740127  RH  040%=      5-min Rain = 0
KSM2 150338Z 10007KT 27/13 A3016 RMK A01 T02740127  RH  040%=      5-min Rain = 0
KSM2 150339Z 10008KT 27/13 A3016 RMK A01 T02730127  RH  040%=      5-min Rain = 0
KSM2 150340Z 10008KT 27/13 A3017 RMK A01 T02730127  RH  040%=      5-min Rain = 0
KSM2 150341Z 10008KT 27/13 A3017 RMK A01 T02730127  RH  040%=      5-min Rain = 0
KSM2 150342Z 10008KT 27/13 A3017 RMK A01 T02730127  RH  040%=      5-min Rain = 0
KSM2 150343Z 10007KT 27/13 A3017 RMK A01 T02730128  RH  041%=      5-min Rain = 0
KSM2 150344Z 10007KT 27/13 A3017 RMK A01 T02730128  RH  041%=      5-min Rain = 0
KSM2 150345Z 10007KT 27/13 A3017 RMK A01 T02730128  RH  041%=      5-min Rain = 0
KSM2 150346Z 11007KT 27/13 A3017 RMK A01 T02730128  RH  041%=      5-min Rain = 0
KSM2 150347Z 10007KT 27/13 A3017 RMK A01 T02730128  RH  041%=      5-min Rain = 0
KSM2 150348Z 10007KT 27/13 A3017 RMK A01 T02730129  RH  041%=      5-min Rain = 0
KSM2 150349Z 11006KT 27/13 A3017 RMK A01 T02730129  RH  041%=      5-min Rain = 0
KSM2 150350Z 11006KT 27/13 A3017 RMK A01 T02720128  RH  041%=      5-min Rain = 0
KSM2 150351Z 11006KT 27/13 A3017 RMK A01 T02720128  RH  041%=      5-min Rain = 0
KSM2 150352Z 11006KT 27/13 A3017 RMK A01 T02720129  RH  041%=      5-min Rain = 0
KSM2 150353Z 11007KT 27/13 A3017 RMK A01 T02720129  RH  041%=      5-min Rain = 0
KSM2 150354Z 11005KT 27/13 A3017 RMK A01 T02710129  RH  041%=      5-min Rain = 0
KSM2 150355Z 12005KT 27/13 A3017 RMK A01 T02710129  RH  041%=      5-min Rain = 0
KSM2 150356Z 11005KT 27/13 A3017 RMK A01 T02710129  RH  041%=      5-min Rain = 0
KSM2 150357Z 11004KT 27/13 A3017 RMK A01 T02700129  RH  042%=      5-min Rain = 0
KSM2 150358Z 11004KT 27/13 A3017 RMK A01 T02700129  RH  042%=      5-min Rain = 0
KSM2 150359Z 11004KT 27/13 A3017 RMK A01 T02700129  RH  042%=      5-min Rain = 0
KSM2 150400Z 11004KT 27/13 A3017 RMK A01 T02690129  RH  042%=      5-min Rain = 0
KSM2 150401Z 10004KT 27/13 A3017 RMK A01 T02680129  RH  042%=      5-min Rain = 0
KSM2 150402Z 10005KT 27/13 A3017 RMK A01 T02680129  RH  042%=      5-min Rain = 0
KSM2 150403Z 10005KT 27/13 A3017 RMK A01 T02670129  RH  042%=      5-min Rain = 0
KSM2 150404Z 10005KT 27/13 A3017 RMK A01 T02660129  RH  043%=      5-min Rain = 0
KSM2 150405Z 10006KT 27/13 A3018 RMK A01 T02650129  RH  043%=      5-min Rain = 0
KSM2 150406Z 10006KT 27/13 A3018 RMK A01 T02650130  RH  043%=      5-min Rain = 0
KSM2 150407Z 10007KT 26/13 A3018 RMK A01 T02640130  RH  043%=      5-min Rain = 0
KSM2 150408Z 10006KT 26/13 A3018 RMK A01 T02640130  RH  044%=      5-min Rain = 0
KSM2 150409Z 10006KT 26/13 A3018 RMK A01 T02640131  RH  044%=      5-min Rain = 0
KSM2 150410Z 10007KT 27/13 A3018 RMK A01 T02650131  RH  043%=      5-min Rain = 0
KSM2 150411Z 10007KT 27/13 A3018 RMK A01 T02650131  RH  044%=      5-min Rain = 0
KSM2 150412Z 10007KT 27/13 A3018 RMK A01 T02660132  RH  044%=      5-min Rain = 0
KSM2 150413Z 10007KT 27/13 A3018 RMK A01 T02650132  RH  044%=      5-min Rain = 0
KSM2 150414Z 10006KT 27/13 A3017 RMK A01 T02650132  RH  044%=      5-min Rain = 0
KSM2 150415Z 11006KT 27/13 A3017 RMK A01 T02650132  RH  044%=      5-min Rain = 0
KSM2 150416Z 10007KT 27/13 A3017 RMK A01 T02650133  RH  044%=      5-min Rain = 0
KSM2 150417Z 10006KT 27/13 A3017 RMK A01 T02650133  RH  044%=      5-min Rain = 0
KSM2 150418Z 10007KT 27/13 A3017 RMK A01 T02650133  RH  044%=      5-min Rain = 0
KSM2 150419Z 10007KT 27/13 A3017 RMK A01 T02650133  RH  044%=      5-min Rain = 0
KSM2 150420Z 10007KT 27/13 A3017 RMK A01 T02650134  RH  044%=      5-min Rain = 0
KSM2 150421Z 10007KT 27/13 A3017 RMK A01 T02650134  RH  044%=      5-min Rain = 0
KSM2 150422Z 10007KT 27/13 A3017 RMK A01 T02660134  RH  044%=      5-min Rain = 0
KSM2 150423Z 10007KT 27/14 A3017 RMK A01 T02660135  RH  044%=      5-min Rain = 0
KSM2 150424Z 10006KT 27/14 A3017 RMK A01 T02660135  RH  044%=      5-min Rain = 0
KSM2 150425Z 10007KT 27/14 A3017 RMK A01 T02650135  RH  045%=      5-min Rain = 0
KSM2 150426Z 10008KT 27/14 A3017 RMK A01 T02650136  RH  045%=      5-min Rain = 0
KSM2 150427Z 11008KT 27/14 A3017 RMK A01 T02650136  RH  045%=      5-min Rain = 0
KSM2 150428Z 11008KT 27/14 A3017 RMK A01 T02660137  RH  045%=      5-min Rain = 0
KSM2 150429Z 10008KT 27/14 A3017 RMK A01 T02660138  RH  045%=      5-min Rain = 0
KSM2 150430Z 11008KT 27/14 A3017 RMK A01 T02670139  RH  045%=      5-min Rain = 0
KSM2 150431Z 11008KT 27/14 A3017 RMK A01 T02680140  RH  045%=      5-min Rain = 0
KSM2 150432Z 11007KT 27/14 A3017 RMK A01 T02690141  RH  045%=      5-min Rain = 0
KSM2 150433Z 11007KT 27/14 A3017 RMK A01 T02690142  RH  046%=      5-min Rain = 0
KSM2 150434Z 11006KT 27/14 A3017 RMK A01 T02690142  RH  046%=      5-min Rain = 0
KSM2 150435Z 11007KT 27/14 A3017 RMK A01 T02690143  RH  046%=      5-min Rain = 0
KSM2 150436Z 11006KT 27/14 A3017 RMK A01 T02700144  RH  046%=      5-min Rain = 0
KSM2 150437Z 11006KT 27/15 A3017 RMK A01 T02700145  RH  046%=      5-min Rain = 0
KSM2 150438Z 11008KT 27/15 A3017 RMK A01 T02710145  RH  046%=      5-min Rain = 0
KSM2 150439Z 11007KT 27/15 A3017 RMK A01 T02710146  RH  046%=      5-min Rain = 0
KSM2 150440Z 12007KT 27/15 A3017 RMK A01 T02720147  RH  046%=      5-min Rain = 0
KSM2 150441Z 12006KT 27/15 A3017 RMK A01 T02730147  RH  046%=      5-min Rain = 0
KSM2 150442Z 12006KT 27/15 A3017 RMK A01 T02730148  RH  046%=      5-min Rain = 0
KSM2 150443Z 12006KT 27/15 A3017 RMK A01 T02730148  RH  046%=      5-min Rain = 0
KSM2 150444Z 12007KT 27/15 A3017 RMK A01 T02730149  RH  047%=      5-min Rain = 0
KSM2 150445Z 12008KT 27/15 A3017 RMK A01 T02730149  RH  047%=      5-min Rain = 0
KSM2 150446Z 12006KT 27/15 A3017 RMK A01 T02730150  RH  047%=      5-min Rain = 0
KSM2 150447Z 12005KT 27/15 A3017 RMK A01 T02740150  RH  047%=      5-min Rain = 0
KSM2 150448Z 12006KT 27/15 A3017 RMK A01 T02740151  RH  047%=      5-min Rain = 0
KSM2 150449Z 12007KT 27/15 A3017 RMK A01 T02730151  RH  047%=      5-min Rain = 0
KSM2 150450Z 12006KT 27/15 A3017 RMK A01 T02730151  RH  047%=      5-min Rain = 0
KSM2 150451Z 12005KT 27/15 A3017 RMK A01 T02730151  RH  047%=      5-min Rain = 0
KSM2 150452Z 13006KT 27/15 A3017 RMK A01 T02730152  RH  048%=      5-min Rain = 0
KSM2 150453Z 12006KT 27/15 A3017 RMK A01 T02730152  RH  048%=      5-min Rain = 0
KSM2 150454Z 12007KT 27/15 A3017 RMK A01 T02730152  RH  048%=      5-min Rain = 0
KSM2 150455Z 12007KT 27/15 A3017 RMK A01 T02730153  RH  048%=      5-min Rain = 0
KSM2 150456Z 12007KT 27/15 A3017 RMK A01 T02720152  RH  048%=      5-min Rain = 0
KSM2 150457Z 11006KT 27/15 A3017 RMK A01 T02720152  RH  048%=      5-min Rain = 0
KSM2 150458Z 11006KT 27/15 A3017 RMK A01 T02720152  RH  048%=      5-min Rain = 0
KSM2 150459Z 12007KT 27/15 A3017 RMK A01 T02720153  RH  048%=      5-min Rain = 0

Page generated in 0.1218 seconds.